<?xml version="1.0" encoding="UTF-8" standalone="no" ?>
<gpx xmlns="http://www.topografix.com/GPX/1/1" xmlns:xsi="http://www.w3.org/2001/XMLSchema-instance" xsi:schemaLocation="http://www.topografix.com/GPX/1/1 http://www.topografix.com/GPX/1/1/gpx.xsd" version="1.1" creator="VisuGPX - https://www.visugpx.com">
  <metadata>
    <name>Vélo CRV </name>
  </metadata>
  <trk>
    <name><![CDATA[Trail]]></name>
    <trkseg>
      <trkpt lat="45.77804" lon="4.80558">
        <ele>171.5</ele>
        <time>2022-05-13T13:49:50.157Z</time>
      </trkpt>
      <trkpt lat="45.77724" lon="4.80367">
        <ele>172</ele>
        <time>2022-05-13T13:49:51.157Z</time>
      </trkpt>
      <trkpt lat="45.77743" lon="4.80343">
        <ele>172</ele>
        <time>2022-05-13T13:49:52.157Z</time>
      </trkpt>
      <trkpt lat="45.77621" lon="4.80217">
        <ele>172.5</ele>
        <time>2022-05-13T13:49:53.157Z</time>
      </trkpt>
      <trkpt lat="45.77577" lon="4.80192">
        <ele>173</ele>
        <time>2022-05-13T13:49:54.157Z</time>
      </trkpt>
      <trkpt lat="45.77628" lon="4.79816">
        <ele>172.2</ele>
        <time>2022-05-13T13:49:55.157Z</time>
      </trkpt>
      <trkpt lat="45.77642" lon="4.79673">
        <ele>175.2</ele>
        <time>2022-05-13T13:49:56.157Z</time>
      </trkpt>
      <trkpt lat="45.77638" lon="4.79621">
        <ele>175.3</ele>
        <time>2022-05-13T13:49:57.157Z</time>
      </trkpt>
      <trkpt lat="45.77597" lon="4.79542">
        <ele>175.3</ele>
        <time>2022-05-13T13:49:58.157Z</time>
      </trkpt>
      <trkpt lat="45.77541" lon="4.79477">
        <ele>177.8</ele>
        <time>2022-05-13T13:49:59.157Z</time>
      </trkpt>
      <trkpt lat="45.77392" lon="4.79297">
        <ele>182</ele>
        <time>2022-05-13T13:50:00.157Z</time>
      </trkpt>
      <trkpt lat="45.77096" lon="4.78954">
        <ele>198.9</ele>
        <time>2022-05-13T13:50:01.157Z</time>
      </trkpt>
      <trkpt lat="45.76931" lon="4.78762">
        <ele>201.1</ele>
        <time>2022-05-13T13:50:02.157Z</time>
      </trkpt>
      <trkpt lat="45.76684" lon="4.78474">
        <ele>207.2</ele>
        <time>2022-05-13T13:50:03.157Z</time>
      </trkpt>
      <trkpt lat="45.76418" lon="4.78175">
        <ele>222.9</ele>
        <time>2022-05-13T13:50:04.157Z</time>
      </trkpt>
      <trkpt lat="45.76266" lon="4.77994">
        <ele>222.8</ele>
        <time>2022-05-13T13:50:05.157Z</time>
      </trkpt>
      <trkpt lat="45.76115" lon="4.77814">
        <ele>221.8</ele>
        <time>2022-05-13T13:50:06.157Z</time>
      </trkpt>
      <trkpt lat="45.75828" lon="4.77478">
        <ele>216.4</ele>
        <time>2022-05-13T13:50:07.157Z</time>
      </trkpt>
      <trkpt lat="45.75082" lon="4.76618">
        <ele>218.6</ele>
        <time>2022-05-13T13:50:08.157Z</time>
      </trkpt>
      <trkpt lat="45.75072" lon="4.76598">
        <ele>218.7</ele>
        <time>2022-05-13T13:50:09.157Z</time>
      </trkpt>
      <trkpt lat="45.75084" lon="4.76578">
        <ele>219</ele>
        <time>2022-05-13T13:50:10.157Z</time>
      </trkpt>
      <trkpt lat="45.75079" lon="4.76552">
        <ele>218.6</ele>
        <time>2022-05-13T13:50:11.157Z</time>
      </trkpt>
      <trkpt lat="45.75063" lon="4.76536">
        <ele>218</ele>
        <time>2022-05-13T13:50:12.157Z</time>
      </trkpt>
      <trkpt lat="45.75062" lon="4.76478">
        <ele>216.4</ele>
        <time>2022-05-13T13:50:13.157Z</time>
      </trkpt>
      <trkpt lat="45.7509" lon="4.76434">
        <ele>215.2</ele>
        <time>2022-05-13T13:50:14.157Z</time>
      </trkpt>
      <trkpt lat="45.75191" lon="4.76344">
        <ele>214.5</ele>
        <time>2022-05-13T13:50:15.157Z</time>
      </trkpt>
      <trkpt lat="45.75219" lon="4.7628">
        <ele>210.9</ele>
        <time>2022-05-13T13:50:16.157Z</time>
      </trkpt>
      <trkpt lat="45.75179" lon="4.76129">
        <ele>211.7</ele>
        <time>2022-05-13T13:50:17.157Z</time>
      </trkpt>
      <trkpt lat="45.75161" lon="4.76108">
        <ele>214.1</ele>
        <time>2022-05-13T13:50:18.157Z</time>
      </trkpt>
      <trkpt lat="45.75093" lon="4.76104">
        <ele>213.9</ele>
        <time>2022-05-13T13:50:19.157Z</time>
      </trkpt>
      <trkpt lat="45.75067" lon="4.76076">
        <ele>216</ele>
        <time>2022-05-13T13:50:20.157Z</time>
      </trkpt>
      <trkpt lat="45.7503" lon="4.75972">
        <ele>224.3</ele>
        <time>2022-05-13T13:50:21.157Z</time>
      </trkpt>
      <trkpt lat="45.74996" lon="4.75954">
        <ele>224.6</ele>
        <time>2022-05-13T13:50:22.157Z</time>
      </trkpt>
      <trkpt lat="45.74961" lon="4.7597">
        <ele>225.6</ele>
        <time>2022-05-13T13:50:23.157Z</time>
      </trkpt>
      <trkpt lat="45.74939" lon="4.75999">
        <ele>224.5</ele>
        <time>2022-05-13T13:50:24.157Z</time>
      </trkpt>
      <trkpt lat="45.74912" lon="4.76031">
        <ele>222.9</ele>
        <time>2022-05-13T13:50:25.157Z</time>
      </trkpt>
      <trkpt lat="45.74882" lon="4.76044">
        <ele>222.9</ele>
        <time>2022-05-13T13:50:26.157Z</time>
      </trkpt>
      <trkpt lat="45.74849" lon="4.76027">
        <ele>225.8</ele>
        <time>2022-05-13T13:50:27.157Z</time>
      </trkpt>
      <trkpt lat="45.74828" lon="4.75973">
        <ele>229.8</ele>
        <time>2022-05-13T13:50:28.157Z</time>
      </trkpt>
      <trkpt lat="45.74824" lon="4.75945">
        <ele>231.6</ele>
        <time>2022-05-13T13:50:29.157Z</time>
      </trkpt>
      <trkpt lat="45.74795" lon="4.75916">
        <ele>234.4</ele>
        <time>2022-05-13T13:50:30.157Z</time>
      </trkpt>
      <trkpt lat="45.7477" lon="4.75876">
        <ele>236.1</ele>
        <time>2022-05-13T13:50:31.157Z</time>
      </trkpt>
      <trkpt lat="45.74754" lon="4.7581">
        <ele>238.1</ele>
        <time>2022-05-13T13:50:32.157Z</time>
      </trkpt>
      <trkpt lat="45.74738" lon="4.75726">
        <ele>241.9</ele>
        <time>2022-05-13T13:50:33.157Z</time>
      </trkpt>
      <trkpt lat="45.74737" lon="4.75294">
        <ele>246.6</ele>
        <time>2022-05-13T13:50:34.157Z</time>
      </trkpt>
      <trkpt lat="45.74737" lon="4.75008">
        <ele>252.3</ele>
        <time>2022-05-13T13:50:35.157Z</time>
      </trkpt>
      <trkpt lat="45.74738" lon="4.74737">
        <ele>262.4</ele>
        <time>2022-05-13T13:50:36.157Z</time>
      </trkpt>
      <trkpt lat="45.74738" lon="4.74403">
        <ele>263.5</ele>
        <time>2022-05-13T13:50:37.157Z</time>
      </trkpt>
      <trkpt lat="45.74739" lon="4.74034">
        <ele>266.4</ele>
        <time>2022-05-13T13:50:38.157Z</time>
      </trkpt>
      <trkpt lat="45.74741" lon="4.74007">
        <ele>267</ele>
        <time>2022-05-13T13:50:39.157Z</time>
      </trkpt>
      <trkpt lat="45.74741" lon="4.7395">
        <ele>268.9</ele>
        <time>2022-05-13T13:50:40.157Z</time>
      </trkpt>
      <trkpt lat="45.74737" lon="4.73929">
        <ele>269.6</ele>
        <time>2022-05-13T13:50:41.157Z</time>
      </trkpt>
      <trkpt lat="45.74736" lon="4.73756">
        <ele>273</ele>
        <time>2022-05-13T13:50:42.157Z</time>
      </trkpt>
      <trkpt lat="45.74737" lon="4.73274">
        <ele>269.3</ele>
        <time>2022-05-13T13:50:43.157Z</time>
      </trkpt>
      <trkpt lat="45.74731" lon="4.73228">
        <ele>269.8</ele>
        <time>2022-05-13T13:50:44.157Z</time>
      </trkpt>
      <trkpt lat="45.74736" lon="4.7303">
        <ele>274.9</ele>
        <time>2022-05-13T13:50:45.157Z</time>
      </trkpt>
      <trkpt lat="45.74736" lon="4.72495">
        <ele>284.1</ele>
        <time>2022-05-13T13:50:46.157Z</time>
      </trkpt>
      <trkpt lat="45.74732" lon="4.7224">
        <ele>282.3</ele>
        <time>2022-05-13T13:50:47.157Z</time>
      </trkpt>
      <trkpt lat="45.74732" lon="4.71932">
        <ele>285.4</ele>
        <time>2022-05-13T13:50:48.157Z</time>
      </trkpt>
      <trkpt lat="45.74731" lon="4.71446">
        <ele>287.3</ele>
        <time>2022-05-13T13:50:49.157Z</time>
      </trkpt>
      <trkpt lat="45.74731" lon="4.70905">
        <ele>303.4</ele>
        <time>2022-05-13T13:50:50.157Z</time>
      </trkpt>
      <trkpt lat="45.74733" lon="4.7066">
        <ele>309</ele>
        <time>2022-05-13T13:50:51.157Z</time>
      </trkpt>
      <trkpt lat="45.74682" lon="4.70501">
        <ele>308.5</ele>
        <time>2022-05-13T13:50:52.157Z</time>
      </trkpt>
      <trkpt lat="45.7468" lon="4.70352">
        <ele>305.4</ele>
        <time>2022-05-13T13:50:53.157Z</time>
      </trkpt>
      <trkpt lat="45.74688" lon="4.7031">
        <ele>305.5</ele>
        <time>2022-05-13T13:50:54.157Z</time>
      </trkpt>
      <trkpt lat="45.74689" lon="4.70251">
        <ele>306</ele>
        <time>2022-05-13T13:50:55.157Z</time>
      </trkpt>
      <trkpt lat="45.74708" lon="4.70118">
        <ele>308.2</ele>
        <time>2022-05-13T13:50:56.157Z</time>
      </trkpt>
      <trkpt lat="45.74862" lon="4.69715">
        <ele>319.5</ele>
        <time>2022-05-13T13:50:57.157Z</time>
      </trkpt>
      <trkpt lat="45.74934" lon="4.69543">
        <ele>325.7</ele>
        <time>2022-05-13T13:50:58.157Z</time>
      </trkpt>
      <trkpt lat="45.74948" lon="4.69504">
        <ele>326.2</ele>
        <time>2022-05-13T13:50:59.157Z</time>
      </trkpt>
      <trkpt lat="45.74966" lon="4.69329">
        <ele>331</ele>
        <time>2022-05-13T13:51:00.157Z</time>
      </trkpt>
      <trkpt lat="45.75001" lon="4.68946">
        <ele>341.2</ele>
        <time>2022-05-13T13:51:01.157Z</time>
      </trkpt>
      <trkpt lat="45.74976" lon="4.68801">
        <ele>345.5</ele>
        <time>2022-05-13T13:51:02.157Z</time>
      </trkpt>
      <trkpt lat="45.74927" lon="4.68629">
        <ele>349.8</ele>
        <time>2022-05-13T13:51:03.157Z</time>
      </trkpt>
      <trkpt lat="45.74866" lon="4.68426">
        <ele>357.6</ele>
        <time>2022-05-13T13:51:04.157Z</time>
      </trkpt>
      <trkpt lat="45.74835" lon="4.68242">
        <ele>364.2</ele>
        <time>2022-05-13T13:51:05.157Z</time>
      </trkpt>
      <trkpt lat="45.74824" lon="4.6813">
        <ele>366.2</ele>
        <time>2022-05-13T13:51:06.157Z</time>
      </trkpt>
      <trkpt lat="45.7482" lon="4.68004">
        <ele>368.3</ele>
        <time>2022-05-13T13:51:07.157Z</time>
      </trkpt>
      <trkpt lat="45.74823" lon="4.67873">
        <ele>369.1</ele>
        <time>2022-05-13T13:51:08.157Z</time>
      </trkpt>
      <trkpt lat="45.74837" lon="4.67621">
        <ele>374.2</ele>
        <time>2022-05-13T13:51:09.157Z</time>
      </trkpt>
      <trkpt lat="45.74846" lon="4.67375">
        <ele>383.2</ele>
        <time>2022-05-13T13:51:10.157Z</time>
      </trkpt>
      <trkpt lat="45.74846" lon="4.67298">
        <ele>385</ele>
        <time>2022-05-13T13:51:11.157Z</time>
      </trkpt>
      <trkpt lat="45.74849" lon="4.67167">
        <ele>388.2</ele>
        <time>2022-05-13T13:51:12.157Z</time>
      </trkpt>
      <trkpt lat="45.74895" lon="4.66836">
        <ele>397.9</ele>
        <time>2022-05-13T13:51:13.157Z</time>
      </trkpt>
      <trkpt lat="45.74898" lon="4.66534">
        <ele>411.9</ele>
        <time>2022-05-13T13:51:14.157Z</time>
      </trkpt>
      <trkpt lat="45.74884" lon="4.66393">
        <ele>420.8</ele>
        <time>2022-05-13T13:51:15.157Z</time>
      </trkpt>
      <trkpt lat="45.74851" lon="4.66216">
        <ele>428.5</ele>
        <time>2022-05-13T13:51:16.157Z</time>
      </trkpt>
      <trkpt lat="45.74833" lon="4.66175">
        <ele>431.2</ele>
        <time>2022-05-13T13:51:17.157Z</time>
      </trkpt>
      <trkpt lat="45.74821" lon="4.66101">
        <ele>433.3</ele>
        <time>2022-05-13T13:51:18.157Z</time>
      </trkpt>
      <trkpt lat="45.74838" lon="4.65958">
        <ele>443.9</ele>
        <time>2022-05-13T13:51:19.157Z</time>
      </trkpt>
      <trkpt lat="45.74838" lon="4.65891">
        <ele>448.9</ele>
        <time>2022-05-13T13:51:20.157Z</time>
      </trkpt>
      <trkpt lat="45.74862" lon="4.65777">
        <ele>454.1</ele>
        <time>2022-05-13T13:51:21.157Z</time>
      </trkpt>
      <trkpt lat="45.74855" lon="4.65718">
        <ele>456.6</ele>
        <time>2022-05-13T13:51:22.157Z</time>
      </trkpt>
      <trkpt lat="45.74823" lon="4.65648">
        <ele>460.3</ele>
        <time>2022-05-13T13:51:23.157Z</time>
      </trkpt>
      <trkpt lat="45.7473" lon="4.6556">
        <ele>470</ele>
        <time>2022-05-13T13:51:24.157Z</time>
      </trkpt>
      <trkpt lat="45.7471" lon="4.65536">
        <ele>471.1</ele>
        <time>2022-05-13T13:51:25.157Z</time>
      </trkpt>
      <trkpt lat="45.74691" lon="4.65491">
        <ele>472.8</ele>
        <time>2022-05-13T13:51:26.157Z</time>
      </trkpt>
      <trkpt lat="45.7467" lon="4.65435">
        <ele>477.8</ele>
        <time>2022-05-13T13:51:27.157Z</time>
      </trkpt>
      <trkpt lat="45.74653" lon="4.65343">
        <ele>483.5</ele>
        <time>2022-05-13T13:51:28.157Z</time>
      </trkpt>
      <trkpt lat="45.74679" lon="4.6526">
        <ele>486.6</ele>
        <time>2022-05-13T13:51:29.157Z</time>
      </trkpt>
      <trkpt lat="45.74704" lon="4.65199">
        <ele>488</ele>
        <time>2022-05-13T13:51:30.157Z</time>
      </trkpt>
      <trkpt lat="45.74717" lon="4.65128">
        <ele>493.5</ele>
        <time>2022-05-13T13:51:31.157Z</time>
      </trkpt>
      <trkpt lat="45.74739" lon="4.65044">
        <ele>499.9</ele>
        <time>2022-05-13T13:51:32.157Z</time>
      </trkpt>
      <trkpt lat="45.74749" lon="4.6497">
        <ele>506.5</ele>
        <time>2022-05-13T13:51:33.157Z</time>
      </trkpt>
      <trkpt lat="45.74737" lon="4.64881">
        <ele>513.8</ele>
        <time>2022-05-13T13:51:34.157Z</time>
      </trkpt>
      <trkpt lat="45.7478" lon="4.64768">
        <ele>518.8</ele>
        <time>2022-05-13T13:51:35.157Z</time>
      </trkpt>
      <trkpt lat="45.74819" lon="4.64668">
        <ele>530.5</ele>
        <time>2022-05-13T13:51:36.157Z</time>
      </trkpt>
      <trkpt lat="45.74847" lon="4.64611">
        <ele>538.3</ele>
        <time>2022-05-13T13:51:37.157Z</time>
      </trkpt>
      <trkpt lat="45.74923" lon="4.64577">
        <ele>537</ele>
        <time>2022-05-13T13:51:38.157Z</time>
      </trkpt>
      <trkpt lat="45.74975" lon="4.64616">
        <ele>536.4</ele>
        <time>2022-05-13T13:51:39.157Z</time>
      </trkpt>
      <trkpt lat="45.75018" lon="4.64617">
        <ele>538.5</ele>
        <time>2022-05-13T13:51:40.157Z</time>
      </trkpt>
      <trkpt lat="45.75059" lon="4.64565">
        <ele>548.1</ele>
        <time>2022-05-13T13:51:41.157Z</time>
      </trkpt>
      <trkpt lat="45.75089" lon="4.64538">
        <ele>551.6</ele>
        <time>2022-05-13T13:51:42.157Z</time>
      </trkpt>
      <trkpt lat="45.75139" lon="4.645">
        <ele>553.7</ele>
        <time>2022-05-13T13:51:43.157Z</time>
      </trkpt>
      <trkpt lat="45.75162" lon="4.64461">
        <ele>560.2</ele>
        <time>2022-05-13T13:51:44.157Z</time>
      </trkpt>
      <trkpt lat="45.75186" lon="4.64403">
        <ele>566.9</ele>
        <time>2022-05-13T13:51:45.157Z</time>
      </trkpt>
      <trkpt lat="45.75226" lon="4.6434">
        <ele>567.8</ele>
        <time>2022-05-13T13:51:46.157Z</time>
      </trkpt>
      <trkpt lat="45.75254" lon="4.64289">
        <ele>568.8</ele>
        <time>2022-05-13T13:51:47.157Z</time>
      </trkpt>
      <trkpt lat="45.75275" lon="4.64217">
        <ele>575</ele>
        <time>2022-05-13T13:51:48.157Z</time>
      </trkpt>
      <trkpt lat="45.75297" lon="4.64112">
        <ele>582.7</ele>
        <time>2022-05-13T13:51:49.157Z</time>
      </trkpt>
      <trkpt lat="45.75319" lon="4.64039">
        <ele>588.8</ele>
        <time>2022-05-13T13:51:50.157Z</time>
      </trkpt>
      <trkpt lat="45.75374" lon="4.63966">
        <ele>595.5</ele>
        <time>2022-05-13T13:51:51.157Z</time>
      </trkpt>
      <trkpt lat="45.75441" lon="4.63855">
        <ele>606.3</ele>
        <time>2022-05-13T13:51:52.157Z</time>
      </trkpt>
      <trkpt lat="45.75499" lon="4.63824">
        <ele>600.6</ele>
        <time>2022-05-13T13:51:53.157Z</time>
      </trkpt>
      <trkpt lat="45.75551" lon="4.63769">
        <ele>606.6</ele>
        <time>2022-05-13T13:51:54.157Z</time>
      </trkpt>
      <trkpt lat="45.75611" lon="4.63669">
        <ele>614.7</ele>
        <time>2022-05-13T13:51:55.157Z</time>
      </trkpt>
      <trkpt lat="45.75627" lon="4.63595">
        <ele>616.1</ele>
        <time>2022-05-13T13:51:56.157Z</time>
      </trkpt>
      <trkpt lat="45.75618" lon="4.63476">
        <ele>622.4</ele>
        <time>2022-05-13T13:51:57.157Z</time>
      </trkpt>
      <trkpt lat="45.75598" lon="4.63311">
        <ele>635.6</ele>
        <time>2022-05-13T13:51:58.157Z</time>
      </trkpt>
      <trkpt lat="45.75601" lon="4.632">
        <ele>642.9</ele>
        <time>2022-05-13T13:51:59.157Z</time>
      </trkpt>
      <trkpt lat="45.75611" lon="4.63122">
        <ele>652.1</ele>
        <time>2022-05-13T13:52:00.157Z</time>
      </trkpt>
      <trkpt lat="45.75622" lon="4.63064">
        <ele>661.1</ele>
        <time>2022-05-13T13:52:01.157Z</time>
      </trkpt>
      <trkpt lat="45.75653" lon="4.63062">
        <ele>657</ele>
        <time>2022-05-13T13:52:02.157Z</time>
      </trkpt>
      <trkpt lat="45.75741" lon="4.63137">
        <ele>648.9</ele>
        <time>2022-05-13T13:52:03.157Z</time>
      </trkpt>
      <trkpt lat="45.75793" lon="4.6312">
        <ele>663.9</ele>
        <time>2022-05-13T13:52:04.157Z</time>
      </trkpt>
      <trkpt lat="45.75852" lon="4.63156">
        <ele>668.8</ele>
        <time>2022-05-13T13:52:05.157Z</time>
      </trkpt>
      <trkpt lat="45.75898" lon="4.63215">
        <ele>668.9</ele>
        <time>2022-05-13T13:52:06.157Z</time>
      </trkpt>
      <trkpt lat="45.7595" lon="4.63251">
        <ele>668.7</ele>
        <time>2022-05-13T13:52:07.157Z</time>
      </trkpt>
      <trkpt lat="45.76007" lon="4.63251">
        <ele>673.8</ele>
        <time>2022-05-13T13:52:08.157Z</time>
      </trkpt>
      <trkpt lat="45.76072" lon="4.63183">
        <ele>683.6</ele>
        <time>2022-05-13T13:52:09.157Z</time>
      </trkpt>
      <trkpt lat="45.76156" lon="4.63037">
        <ele>702.4</ele>
        <time>2022-05-13T13:52:10.157Z</time>
      </trkpt>
      <trkpt lat="45.76172" lon="4.63039">
        <ele>702.3</ele>
        <time>2022-05-13T13:52:11.157Z</time>
      </trkpt>
      <trkpt lat="45.76191" lon="4.63161">
        <ele>697.7</ele>
        <time>2022-05-13T13:52:12.157Z</time>
      </trkpt>
      <trkpt lat="45.76201" lon="4.63287">
        <ele>693</ele>
        <time>2022-05-13T13:52:13.157Z</time>
      </trkpt>
      <trkpt lat="45.7621" lon="4.63312">
        <ele>695.1</ele>
        <time>2022-05-13T13:52:14.157Z</time>
      </trkpt>
      <trkpt lat="45.76223" lon="4.63312">
        <ele>699.6</ele>
        <time>2022-05-13T13:52:15.157Z</time>
      </trkpt>
      <trkpt lat="45.76235" lon="4.63296">
        <ele>704.6</ele>
        <time>2022-05-13T13:52:16.157Z</time>
      </trkpt>
      <trkpt lat="45.7623" lon="4.63259">
        <ele>704.6</ele>
        <time>2022-05-13T13:52:17.157Z</time>
      </trkpt>
      <trkpt lat="45.76226" lon="4.63201">
        <ele>706.2</ele>
        <time>2022-05-13T13:52:18.157Z</time>
      </trkpt>
      <trkpt lat="45.76234" lon="4.63103">
        <ele>711.2</ele>
        <time>2022-05-13T13:52:19.157Z</time>
      </trkpt>
      <trkpt lat="45.76258" lon="4.62983">
        <ele>720.6</ele>
        <time>2022-05-13T13:52:20.157Z</time>
      </trkpt>
      <trkpt lat="45.76292" lon="4.62834">
        <ele>723.9</ele>
        <time>2022-05-13T13:52:21.157Z</time>
      </trkpt>
      <trkpt lat="45.76307" lon="4.62725">
        <ele>724.1</ele>
        <time>2022-05-13T13:52:22.157Z</time>
      </trkpt>
      <trkpt lat="45.76293" lon="4.62667">
        <ele>725.7</ele>
        <time>2022-05-13T13:52:23.157Z</time>
      </trkpt>
      <trkpt lat="45.76274" lon="4.62651">
        <ele>728</ele>
        <time>2022-05-13T13:52:24.157Z</time>
      </trkpt>
      <trkpt lat="45.76222" lon="4.62646">
        <ele>735.8</ele>
        <time>2022-05-13T13:52:25.157Z</time>
      </trkpt>
      <trkpt lat="45.76191" lon="4.62624">
        <ele>737.5</ele>
        <time>2022-05-13T13:52:26.157Z</time>
      </trkpt>
      <trkpt lat="45.76105" lon="4.62515">
        <ele>742.6</ele>
        <time>2022-05-13T13:52:27.157Z</time>
      </trkpt>
      <trkpt lat="45.76051" lon="4.62442">
        <ele>747.9</ele>
        <time>2022-05-13T13:52:28.157Z</time>
      </trkpt>
      <trkpt lat="45.76007" lon="4.62385">
        <ele>753.5</ele>
        <time>2022-05-13T13:52:29.157Z</time>
      </trkpt>
      <trkpt lat="45.75963" lon="4.62295">
        <ele>755.9</ele>
        <time>2022-05-13T13:52:30.157Z</time>
      </trkpt>
      <trkpt lat="45.75876" lon="4.62224">
        <ele>762.4</ele>
        <time>2022-05-13T13:52:31.157Z</time>
      </trkpt>
      <trkpt lat="45.7581" lon="4.62148">
        <ele>756.5</ele>
        <time>2022-05-13T13:52:32.157Z</time>
      </trkpt>
      <trkpt lat="45.75741" lon="4.6203">
        <ele>757.9</ele>
        <time>2022-05-13T13:52:33.157Z</time>
      </trkpt>
      <trkpt lat="45.75685" lon="4.61897">
        <ele>761</ele>
        <time>2022-05-13T13:52:34.157Z</time>
      </trkpt>
      <trkpt lat="45.75627" lon="4.61777">
        <ele>755.9</ele>
        <time>2022-05-13T13:52:35.157Z</time>
      </trkpt>
      <trkpt lat="45.75617" lon="4.61709">
        <ele>759</ele>
        <time>2022-05-13T13:52:36.157Z</time>
      </trkpt>
      <trkpt lat="45.75626" lon="4.61595">
        <ele>755.5</ele>
        <time>2022-05-13T13:52:37.157Z</time>
      </trkpt>
      <trkpt lat="45.75603" lon="4.61477">
        <ele>752.2</ele>
        <time>2022-05-13T13:52:38.157Z</time>
      </trkpt>
      <trkpt lat="45.75566" lon="4.61398">
        <ele>754.8</ele>
        <time>2022-05-13T13:52:39.157Z</time>
      </trkpt>
      <trkpt lat="45.75511" lon="4.61355">
        <ele>754.6</ele>
        <time>2022-05-13T13:52:40.157Z</time>
      </trkpt>
      <trkpt lat="45.75409" lon="4.61312">
        <ele>757.3</ele>
        <time>2022-05-13T13:52:41.157Z</time>
      </trkpt>
      <trkpt lat="45.75315" lon="4.61206">
        <ele>757.2</ele>
        <time>2022-05-13T13:52:42.157Z</time>
      </trkpt>
      <trkpt lat="45.75242" lon="4.61107">
        <ele>753.9</ele>
        <time>2022-05-13T13:52:43.157Z</time>
      </trkpt>
      <trkpt lat="45.75185" lon="4.61007">
        <ele>747.4</ele>
        <time>2022-05-13T13:52:44.157Z</time>
      </trkpt>
      <trkpt lat="45.7515" lon="4.60985">
        <ele>746.5</ele>
        <time>2022-05-13T13:52:45.157Z</time>
      </trkpt>
      <trkpt lat="45.75054" lon="4.60983">
        <ele>747.6</ele>
        <time>2022-05-13T13:52:46.157Z</time>
      </trkpt>
      <trkpt lat="45.74984" lon="4.60979">
        <ele>746.6</ele>
        <time>2022-05-13T13:52:47.157Z</time>
      </trkpt>
      <trkpt lat="45.74921" lon="4.60985">
        <ele>739.7</ele>
        <time>2022-05-13T13:52:48.157Z</time>
      </trkpt>
      <trkpt lat="45.74871" lon="4.61024">
        <ele>734</ele>
        <time>2022-05-13T13:52:49.157Z</time>
      </trkpt>
      <trkpt lat="45.74808" lon="4.61096">
        <ele>734.6</ele>
        <time>2022-05-13T13:52:50.157Z</time>
      </trkpt>
      <trkpt lat="45.74792" lon="4.61133">
        <ele>735.6</ele>
        <time>2022-05-13T13:52:51.157Z</time>
      </trkpt>
      <trkpt lat="45.74781" lon="4.61169">
        <ele>738.1</ele>
        <time>2022-05-13T13:52:52.157Z</time>
      </trkpt>
      <trkpt lat="45.74692" lon="4.61296">
        <ele>739.4</ele>
        <time>2022-05-13T13:52:53.157Z</time>
      </trkpt>
      <trkpt lat="45.74639" lon="4.61325">
        <ele>741.9</ele>
        <time>2022-05-13T13:52:54.157Z</time>
      </trkpt>
      <trkpt lat="45.74557" lon="4.61324">
        <ele>752.2</ele>
        <time>2022-05-13T13:52:55.157Z</time>
      </trkpt>
      <trkpt lat="45.74499" lon="4.61335">
        <ele>757.5</ele>
        <time>2022-05-13T13:52:56.157Z</time>
      </trkpt>
      <trkpt lat="45.74446" lon="4.6135">
        <ele>757.3</ele>
        <time>2022-05-13T13:52:57.157Z</time>
      </trkpt>
      <trkpt lat="45.74408" lon="4.61346">
        <ele>759.8</ele>
        <time>2022-05-13T13:52:58.157Z</time>
      </trkpt>
      <trkpt lat="45.74366" lon="4.61282">
        <ele>769.2</ele>
        <time>2022-05-13T13:52:59.157Z</time>
      </trkpt>
      <trkpt lat="45.74341" lon="4.61254">
        <ele>772.2</ele>
        <time>2022-05-13T13:53:00.157Z</time>
      </trkpt>
      <trkpt lat="45.74302" lon="4.61248">
        <ele>770.9</ele>
        <time>2022-05-13T13:53:01.157Z</time>
      </trkpt>
      <trkpt lat="45.74227" lon="4.61235">
        <ele>773.9</ele>
        <time>2022-05-13T13:53:02.157Z</time>
      </trkpt>
      <trkpt lat="45.74166" lon="4.6125">
        <ele>779.2</ele>
        <time>2022-05-13T13:53:03.157Z</time>
      </trkpt>
      <trkpt lat="45.74095" lon="4.61282">
        <ele>786.6</ele>
        <time>2022-05-13T13:53:04.157Z</time>
      </trkpt>
      <trkpt lat="45.74015" lon="4.61317">
        <ele>795</ele>
        <time>2022-05-13T13:53:05.157Z</time>
      </trkpt>
      <trkpt lat="45.73988" lon="4.61327">
        <ele>795.6</ele>
        <time>2022-05-13T13:53:06.157Z</time>
      </trkpt>
      <trkpt lat="45.73932" lon="4.61306">
        <ele>802.4</ele>
        <time>2022-05-13T13:53:07.157Z</time>
      </trkpt>
      <trkpt lat="45.73873" lon="4.61313">
        <ele>800.9</ele>
        <time>2022-05-13T13:53:08.157Z</time>
      </trkpt>
      <trkpt lat="45.73842" lon="4.61313">
        <ele>800.8</ele>
        <time>2022-05-13T13:53:09.157Z</time>
      </trkpt>
      <trkpt lat="45.73806" lon="4.61287">
        <ele>801.2</ele>
        <time>2022-05-13T13:53:10.157Z</time>
      </trkpt>
      <trkpt lat="45.73774" lon="4.61227">
        <ele>805.5</ele>
        <time>2022-05-13T13:53:11.157Z</time>
      </trkpt>
      <trkpt lat="45.73757" lon="4.61161">
        <ele>811</ele>
        <time>2022-05-13T13:53:12.157Z</time>
      </trkpt>
      <trkpt lat="45.73752" lon="4.61091">
        <ele>814.1</ele>
        <time>2022-05-13T13:53:13.157Z</time>
      </trkpt>
      <trkpt lat="45.73768" lon="4.60924">
        <ele>818.4</ele>
        <time>2022-05-13T13:53:14.157Z</time>
      </trkpt>
      <trkpt lat="45.73796" lon="4.60766">
        <ele>827.2</ele>
        <time>2022-05-13T13:53:15.157Z</time>
      </trkpt>
      <trkpt lat="45.73834" lon="4.6066">
        <ele>834</ele>
        <time>2022-05-13T13:53:16.157Z</time>
      </trkpt>
      <trkpt lat="45.73921" lon="4.60499">
        <ele>844</ele>
        <time>2022-05-13T13:53:17.157Z</time>
      </trkpt>
      <trkpt lat="45.7393" lon="4.60452">
        <ele>842.1</ele>
        <time>2022-05-13T13:53:18.157Z</time>
      </trkpt>
      <trkpt lat="45.7393" lon="4.60403">
        <ele>840.1</ele>
        <time>2022-05-13T13:53:19.157Z</time>
      </trkpt>
      <trkpt lat="45.73897" lon="4.60324">
        <ele>835</ele>
        <time>2022-05-13T13:53:20.157Z</time>
      </trkpt>
      <trkpt lat="45.73701" lon="4.60111">
        <ele>823.3</ele>
        <time>2022-05-13T13:53:21.157Z</time>
      </trkpt>
      <trkpt lat="45.7355" lon="4.59993">
        <ele>832.6</ele>
        <time>2022-05-13T13:53:22.157Z</time>
      </trkpt>
      <trkpt lat="45.7339" lon="4.59826">
        <ele>837.7</ele>
        <time>2022-05-13T13:53:23.157Z</time>
      </trkpt>
      <trkpt lat="45.73348" lon="4.59807">
        <ele>839.4</ele>
        <time>2022-05-13T13:53:24.157Z</time>
      </trkpt>
      <trkpt lat="45.73287" lon="4.59842">
        <ele>837.3</ele>
        <time>2022-05-13T13:53:25.157Z</time>
      </trkpt>
      <trkpt lat="45.73245" lon="4.59882">
        <ele>838.1</ele>
        <time>2022-05-13T13:53:26.157Z</time>
      </trkpt>
      <trkpt lat="45.7314" lon="4.59897">
        <ele>833</ele>
        <time>2022-05-13T13:53:27.157Z</time>
      </trkpt>
      <trkpt lat="45.73054" lon="4.59939">
        <ele>833.8</ele>
        <time>2022-05-13T13:53:28.157Z</time>
      </trkpt>
      <trkpt lat="45.72914" lon="4.60002">
        <ele>838.7</ele>
        <time>2022-05-13T13:53:29.157Z</time>
      </trkpt>
      <trkpt lat="45.72852" lon="4.60031">
        <ele>833.3</ele>
        <time>2022-05-13T13:53:30.157Z</time>
      </trkpt>
      <trkpt lat="45.72798" lon="4.60037">
        <ele>833.2</ele>
        <time>2022-05-13T13:53:31.157Z</time>
      </trkpt>
      <trkpt lat="45.727" lon="4.60013">
        <ele>838.1</ele>
        <time>2022-05-13T13:53:32.157Z</time>
      </trkpt>
      <trkpt lat="45.72571" lon="4.59988">
        <ele>836.4</ele>
        <time>2022-05-13T13:53:33.157Z</time>
      </trkpt>
      <trkpt lat="45.72494" lon="4.59942">
        <ele>833.9</ele>
        <time>2022-05-13T13:53:34.157Z</time>
      </trkpt>
      <trkpt lat="45.72444" lon="4.5988">
        <ele>830.7</ele>
        <time>2022-05-13T13:53:35.157Z</time>
      </trkpt>
      <trkpt lat="45.72358" lon="4.59712">
        <ele>826.9</ele>
        <time>2022-05-13T13:53:36.157Z</time>
      </trkpt>
      <trkpt lat="45.72278" lon="4.59561">
        <ele>818.9</ele>
        <time>2022-05-13T13:53:37.157Z</time>
      </trkpt>
      <trkpt lat="45.72138" lon="4.59296">
        <ele>815.1</ele>
        <time>2022-05-13T13:53:38.157Z</time>
      </trkpt>
      <trkpt lat="45.72082" lon="4.59224">
        <ele>812.5</ele>
        <time>2022-05-13T13:53:39.157Z</time>
      </trkpt>
      <trkpt lat="45.71991" lon="4.59158">
        <ele>803.9</ele>
        <time>2022-05-13T13:53:40.157Z</time>
      </trkpt>
      <trkpt lat="45.71888" lon="4.5911">
        <ele>802.2</ele>
        <time>2022-05-13T13:53:41.157Z</time>
      </trkpt>
      <trkpt lat="45.71833" lon="4.59122">
        <ele>798.8</ele>
        <time>2022-05-13T13:53:42.157Z</time>
      </trkpt>
      <trkpt lat="45.71781" lon="4.59162">
        <ele>789.9</ele>
        <time>2022-05-13T13:53:43.157Z</time>
      </trkpt>
      <trkpt lat="45.71762" lon="4.59172">
        <ele>789.2</ele>
        <time>2022-05-13T13:53:44.157Z</time>
      </trkpt>
      <trkpt lat="45.71728" lon="4.59157">
        <ele>787.6</ele>
        <time>2022-05-13T13:53:45.157Z</time>
      </trkpt>
      <trkpt lat="45.71713" lon="4.59129">
        <ele>787.2</ele>
        <time>2022-05-13T13:53:46.157Z</time>
      </trkpt>
      <trkpt lat="45.71676" lon="4.58842">
        <ele>787.1</ele>
        <time>2022-05-13T13:53:47.157Z</time>
      </trkpt>
      <trkpt lat="45.71656" lon="4.58801">
        <ele>783.4</ele>
        <time>2022-05-13T13:53:48.157Z</time>
      </trkpt>
      <trkpt lat="45.71621" lon="4.58773">
        <ele>779.4</ele>
        <time>2022-05-13T13:53:49.157Z</time>
      </trkpt>
      <trkpt lat="45.71574" lon="4.58773">
        <ele>774.2</ele>
        <time>2022-05-13T13:53:50.157Z</time>
      </trkpt>
      <trkpt lat="45.71535" lon="4.58792">
        <ele>774.3</ele>
        <time>2022-05-13T13:53:51.157Z</time>
      </trkpt>
      <trkpt lat="45.71352" lon="4.58896">
        <ele>775.9</ele>
        <time>2022-05-13T13:53:52.157Z</time>
      </trkpt>
      <trkpt lat="45.7128" lon="4.58912">
        <ele>775.7</ele>
        <time>2022-05-13T13:53:53.157Z</time>
      </trkpt>
      <trkpt lat="45.71244" lon="4.58928">
        <ele>773.4</ele>
        <time>2022-05-13T13:53:54.157Z</time>
      </trkpt>
      <trkpt lat="45.71177" lon="4.58986">
        <ele>767.1</ele>
        <time>2022-05-13T13:53:55.157Z</time>
      </trkpt>
      <trkpt lat="45.71133" lon="4.59019">
        <ele>755.7</ele>
        <time>2022-05-13T13:53:56.157Z</time>
      </trkpt>
      <trkpt lat="45.71081" lon="4.59007">
        <ele>754.8</ele>
        <time>2022-05-13T13:53:57.157Z</time>
      </trkpt>
      <trkpt lat="45.71032" lon="4.58936">
        <ele>751.9</ele>
        <time>2022-05-13T13:53:58.157Z</time>
      </trkpt>
      <trkpt lat="45.70992" lon="4.58863">
        <ele>748.1</ele>
        <time>2022-05-13T13:53:59.157Z</time>
      </trkpt>
      <trkpt lat="45.70975" lon="4.58682">
        <ele>744.6</ele>
        <time>2022-05-13T13:54:00.157Z</time>
      </trkpt>
      <trkpt lat="45.70969" lon="4.58553">
        <ele>739.3</ele>
        <time>2022-05-13T13:54:01.157Z</time>
      </trkpt>
      <trkpt lat="45.70962" lon="4.58409">
        <ele>734.4</ele>
        <time>2022-05-13T13:54:02.157Z</time>
      </trkpt>
      <trkpt lat="45.70955" lon="4.58256">
        <ele>726.6</ele>
        <time>2022-05-13T13:54:03.157Z</time>
      </trkpt>
      <trkpt lat="45.70974" lon="4.58129">
        <ele>723.1</ele>
        <time>2022-05-13T13:54:04.157Z</time>
      </trkpt>
      <trkpt lat="45.70988" lon="4.58068">
        <ele>721</ele>
        <time>2022-05-13T13:54:05.157Z</time>
      </trkpt>
      <trkpt lat="45.71037" lon="4.58008">
        <ele>723.7</ele>
        <time>2022-05-13T13:54:06.157Z</time>
      </trkpt>
      <trkpt lat="45.71114" lon="4.57939">
        <ele>728.9</ele>
        <time>2022-05-13T13:54:07.157Z</time>
      </trkpt>
      <trkpt lat="45.71195" lon="4.57856">
        <ele>736.1</ele>
        <time>2022-05-13T13:54:08.157Z</time>
      </trkpt>
      <trkpt lat="45.71252" lon="4.57781">
        <ele>738.5</ele>
        <time>2022-05-13T13:54:09.157Z</time>
      </trkpt>
      <trkpt lat="45.71306" lon="4.57745">
        <ele>739.1</ele>
        <time>2022-05-13T13:54:10.157Z</time>
      </trkpt>
      <trkpt lat="45.71345" lon="4.57734">
        <ele>740.7</ele>
        <time>2022-05-13T13:54:11.157Z</time>
      </trkpt>
      <trkpt lat="45.71381" lon="4.57734">
        <ele>741.4</ele>
        <time>2022-05-13T13:54:12.157Z</time>
      </trkpt>
      <trkpt lat="45.71417" lon="4.57759">
        <ele>745.8</ele>
        <time>2022-05-13T13:54:13.157Z</time>
      </trkpt>
      <trkpt lat="45.71441" lon="4.57788">
        <ele>752.1</ele>
        <time>2022-05-13T13:54:14.157Z</time>
      </trkpt>
      <trkpt lat="45.71468" lon="4.57804">
        <ele>754.2</ele>
        <time>2022-05-13T13:54:15.157Z</time>
      </trkpt>
      <trkpt lat="45.71488" lon="4.57792">
        <ele>752.9</ele>
        <time>2022-05-13T13:54:16.157Z</time>
      </trkpt>
      <trkpt lat="45.71488" lon="4.57755">
        <ele>750.3</ele>
        <time>2022-05-13T13:54:17.157Z</time>
      </trkpt>
      <trkpt lat="45.71474" lon="4.57686">
        <ele>746.4</ele>
        <time>2022-05-13T13:54:18.157Z</time>
      </trkpt>
      <trkpt lat="45.71478" lon="4.57635">
        <ele>744.9</ele>
        <time>2022-05-13T13:54:19.157Z</time>
      </trkpt>
      <trkpt lat="45.71507" lon="4.57539">
        <ele>744.8</ele>
        <time>2022-05-13T13:54:20.157Z</time>
      </trkpt>
      <trkpt lat="45.71536" lon="4.57496">
        <ele>747.8</ele>
        <time>2022-05-13T13:54:21.157Z</time>
      </trkpt>
      <trkpt lat="45.71568" lon="4.57455">
        <ele>751.4</ele>
        <time>2022-05-13T13:54:22.157Z</time>
      </trkpt>
      <trkpt lat="45.71619" lon="4.57407">
        <ele>756.3</ele>
        <time>2022-05-13T13:54:23.157Z</time>
      </trkpt>
      <trkpt lat="45.71688" lon="4.57342">
        <ele>758.6</ele>
        <time>2022-05-13T13:54:24.157Z</time>
      </trkpt>
      <trkpt lat="45.71713" lon="4.57319">
        <ele>758.9</ele>
        <time>2022-05-13T13:54:25.157Z</time>
      </trkpt>
      <trkpt lat="45.71759" lon="4.57298">
        <ele>759.8</ele>
        <time>2022-05-13T13:54:26.157Z</time>
      </trkpt>
      <trkpt lat="45.71816" lon="4.57269">
        <ele>763.6</ele>
        <time>2022-05-13T13:54:27.157Z</time>
      </trkpt>
      <trkpt lat="45.71877" lon="4.57132">
        <ele>768.6</ele>
        <time>2022-05-13T13:54:28.157Z</time>
      </trkpt>
      <trkpt lat="45.71877" lon="4.57094">
        <ele>769.3</ele>
        <time>2022-05-13T13:54:29.157Z</time>
      </trkpt>
      <trkpt lat="45.71851" lon="4.57077">
        <ele>769.2</ele>
        <time>2022-05-13T13:54:30.157Z</time>
      </trkpt>
      <trkpt lat="45.71825" lon="4.57069">
        <ele>770.6</ele>
        <time>2022-05-13T13:54:31.157Z</time>
      </trkpt>
      <trkpt lat="45.7179" lon="4.57111">
        <ele>772.1</ele>
        <time>2022-05-13T13:54:32.157Z</time>
      </trkpt>
      <trkpt lat="45.71742" lon="4.57141">
        <ele>774.6</ele>
        <time>2022-05-13T13:54:33.157Z</time>
      </trkpt>
      <trkpt lat="45.71667" lon="4.57179">
        <ele>781</ele>
        <time>2022-05-13T13:54:34.157Z</time>
      </trkpt>
      <trkpt lat="45.71596" lon="4.57214">
        <ele>781</ele>
        <time>2022-05-13T13:54:35.157Z</time>
      </trkpt>
      <trkpt lat="45.71564" lon="4.57219">
        <ele>779.6</ele>
        <time>2022-05-13T13:54:36.157Z</time>
      </trkpt>
      <trkpt lat="45.71547" lon="4.57205">
        <ele>779.8</ele>
        <time>2022-05-13T13:54:37.157Z</time>
      </trkpt>
      <trkpt lat="45.71508" lon="4.57044">
        <ele>792.8</ele>
        <time>2022-05-13T13:54:38.157Z</time>
      </trkpt>
      <trkpt lat="45.71467" lon="4.56923">
        <ele>797.3</ele>
        <time>2022-05-13T13:54:39.157Z</time>
      </trkpt>
      <trkpt lat="45.71462" lon="4.56882">
        <ele>799.5</ele>
        <time>2022-05-13T13:54:40.157Z</time>
      </trkpt>
      <trkpt lat="45.71465" lon="4.56829">
        <ele>804.3</ele>
        <time>2022-05-13T13:54:41.157Z</time>
      </trkpt>
      <trkpt lat="45.71488" lon="4.5674">
        <ele>811.7</ele>
        <time>2022-05-13T13:54:42.157Z</time>
      </trkpt>
      <trkpt lat="45.7149" lon="4.56683">
        <ele>815.9</ele>
        <time>2022-05-13T13:54:43.157Z</time>
      </trkpt>
      <trkpt lat="45.71462" lon="4.56484">
        <ele>824.9</ele>
        <time>2022-05-13T13:54:44.157Z</time>
      </trkpt>
      <trkpt lat="45.71462" lon="4.5642">
        <ele>825.2</ele>
        <time>2022-05-13T13:54:45.157Z</time>
      </trkpt>
      <trkpt lat="45.71479" lon="4.56282">
        <ele>829.5</ele>
        <time>2022-05-13T13:54:46.157Z</time>
      </trkpt>
      <trkpt lat="45.71484" lon="4.56221">
        <ele>832.8</ele>
        <time>2022-05-13T13:54:47.157Z</time>
      </trkpt>
      <trkpt lat="45.71472" lon="4.5615">
        <ele>834.7</ele>
        <time>2022-05-13T13:54:48.157Z</time>
      </trkpt>
      <trkpt lat="45.71454" lon="4.5607">
        <ele>835.2</ele>
        <time>2022-05-13T13:54:49.157Z</time>
      </trkpt>
      <trkpt lat="45.71443" lon="4.55939">
        <ele>839.5</ele>
        <time>2022-05-13T13:54:50.157Z</time>
      </trkpt>
      <trkpt lat="45.71427" lon="4.5589">
        <ele>840.6</ele>
        <time>2022-05-13T13:54:51.157Z</time>
      </trkpt>
      <trkpt lat="45.71372" lon="4.55808">
        <ele>843.3</ele>
        <time>2022-05-13T13:54:52.157Z</time>
      </trkpt>
      <trkpt lat="45.71305" lon="4.55699">
        <ele>849.8</ele>
        <time>2022-05-13T13:54:53.157Z</time>
      </trkpt>
      <trkpt lat="45.71241" lon="4.55561">
        <ele>854.7</ele>
        <time>2022-05-13T13:54:54.157Z</time>
      </trkpt>
      <trkpt lat="45.712" lon="4.55486">
        <ele>857.9</ele>
        <time>2022-05-13T13:54:55.157Z</time>
      </trkpt>
      <trkpt lat="45.71111" lon="4.55445">
        <ele>859.9</ele>
        <time>2022-05-13T13:54:56.157Z</time>
      </trkpt>
      <trkpt lat="45.71023" lon="4.55448">
        <ele>861.2</ele>
        <time>2022-05-13T13:54:57.157Z</time>
      </trkpt>
      <trkpt lat="45.70865" lon="4.55458">
        <ele>861.5</ele>
        <time>2022-05-13T13:54:58.157Z</time>
      </trkpt>
      <trkpt lat="45.70655" lon="4.55475">
        <ele>867.3</ele>
        <time>2022-05-13T13:54:59.157Z</time>
      </trkpt>
      <trkpt lat="45.70598" lon="4.55478">
        <ele>866.7</ele>
        <time>2022-05-13T13:55:00.157Z</time>
      </trkpt>
      <trkpt lat="45.70525" lon="4.55543">
        <ele>862</ele>
        <time>2022-05-13T13:55:01.157Z</time>
      </trkpt>
      <trkpt lat="45.70494" lon="4.55616">
        <ele>862.6</ele>
        <time>2022-05-13T13:55:02.157Z</time>
      </trkpt>
      <trkpt lat="45.70386" lon="4.55679">
        <ele>855.1</ele>
        <time>2022-05-13T13:55:03.157Z</time>
      </trkpt>
      <trkpt lat="45.70334" lon="4.55691">
        <ele>850.9</ele>
        <time>2022-05-13T13:55:04.157Z</time>
      </trkpt>
      <trkpt lat="45.70233" lon="4.55652">
        <ele>851</ele>
        <time>2022-05-13T13:55:05.157Z</time>
      </trkpt>
      <trkpt lat="45.70212" lon="4.55626">
        <ele>853.1</ele>
        <time>2022-05-13T13:55:06.157Z</time>
      </trkpt>
      <trkpt lat="45.70193" lon="4.55496">
        <ele>843.6</ele>
        <time>2022-05-13T13:55:07.157Z</time>
      </trkpt>
      <trkpt lat="45.70164" lon="4.55421">
        <ele>839.9</ele>
        <time>2022-05-13T13:55:08.157Z</time>
      </trkpt>
      <trkpt lat="45.70125" lon="4.55363">
        <ele>840.9</ele>
        <time>2022-05-13T13:55:09.157Z</time>
      </trkpt>
      <trkpt lat="45.70113" lon="4.55315">
        <ele>841.5</ele>
        <time>2022-05-13T13:55:10.157Z</time>
      </trkpt>
      <trkpt lat="45.70119" lon="4.55185">
        <ele>839.9</ele>
        <time>2022-05-13T13:55:11.157Z</time>
      </trkpt>
      <trkpt lat="45.70105" lon="4.5508">
        <ele>833.8</ele>
        <time>2022-05-13T13:55:12.157Z</time>
      </trkpt>
      <trkpt lat="45.70048" lon="4.54933">
        <ele>825.3</ele>
        <time>2022-05-13T13:55:13.157Z</time>
      </trkpt>
      <trkpt lat="45.69983" lon="4.54829">
        <ele>822.7</ele>
        <time>2022-05-13T13:55:14.157Z</time>
      </trkpt>
      <trkpt lat="45.69905" lon="4.54779">
        <ele>821.3</ele>
        <time>2022-05-13T13:55:15.157Z</time>
      </trkpt>
      <trkpt lat="45.69823" lon="4.54761">
        <ele>818.8</ele>
        <time>2022-05-13T13:55:16.157Z</time>
      </trkpt>
      <trkpt lat="45.69771" lon="4.54744">
        <ele>818.8</ele>
        <time>2022-05-13T13:55:17.157Z</time>
      </trkpt>
      <trkpt lat="45.69709" lon="4.54663">
        <ele>819.5</ele>
        <time>2022-05-13T13:55:18.157Z</time>
      </trkpt>
      <trkpt lat="45.69675" lon="4.54615">
        <ele>816.4</ele>
        <time>2022-05-13T13:55:19.157Z</time>
      </trkpt>
      <trkpt lat="45.69611" lon="4.54562">
        <ele>813.5</ele>
        <time>2022-05-13T13:55:20.157Z</time>
      </trkpt>
      <trkpt lat="45.69547" lon="4.54514">
        <ele>815.4</ele>
        <time>2022-05-13T13:55:21.157Z</time>
      </trkpt>
      <trkpt lat="45.69516" lon="4.54437">
        <ele>814.2</ele>
        <time>2022-05-13T13:55:22.157Z</time>
      </trkpt>
      <trkpt lat="45.69497" lon="4.54319">
        <ele>808.4</ele>
        <time>2022-05-13T13:55:23.157Z</time>
      </trkpt>
      <trkpt lat="45.69449" lon="4.54202">
        <ele>806.9</ele>
        <time>2022-05-13T13:55:24.157Z</time>
      </trkpt>
      <trkpt lat="45.6943" lon="4.54117">
        <ele>803.6</ele>
        <time>2022-05-13T13:55:25.157Z</time>
      </trkpt>
      <trkpt lat="45.69421" lon="4.54014">
        <ele>799.7</ele>
        <time>2022-05-13T13:55:26.157Z</time>
      </trkpt>
      <trkpt lat="45.69414" lon="4.53932">
        <ele>793.9</ele>
        <time>2022-05-13T13:55:27.157Z</time>
      </trkpt>
      <trkpt lat="45.6938" lon="4.5387">
        <ele>790.7</ele>
        <time>2022-05-13T13:55:28.157Z</time>
      </trkpt>
      <trkpt lat="45.69328" lon="4.53841">
        <ele>790.5</ele>
        <time>2022-05-13T13:55:29.157Z</time>
      </trkpt>
      <trkpt lat="45.69276" lon="4.53828">
        <ele>789.5</ele>
        <time>2022-05-13T13:55:30.157Z</time>
      </trkpt>
      <trkpt lat="45.69192" lon="4.53801">
        <ele>785.9</ele>
        <time>2022-05-13T13:55:31.157Z</time>
      </trkpt>
      <trkpt lat="45.69138" lon="4.53745">
        <ele>782.5</ele>
        <time>2022-05-13T13:55:32.157Z</time>
      </trkpt>
      <trkpt lat="45.69064" lon="4.53677">
        <ele>782.2</ele>
        <time>2022-05-13T13:55:33.157Z</time>
      </trkpt>
      <trkpt lat="45.6897" lon="4.53567">
        <ele>780.6</ele>
        <time>2022-05-13T13:55:34.157Z</time>
      </trkpt>
      <trkpt lat="45.68931" lon="4.53536">
        <ele>782.6</ele>
        <time>2022-05-13T13:55:35.157Z</time>
      </trkpt>
      <trkpt lat="45.68875" lon="4.53491">
        <ele>785.7</ele>
        <time>2022-05-13T13:55:36.157Z</time>
      </trkpt>
      <trkpt lat="45.68814" lon="4.53475">
        <ele>789.4</ele>
        <time>2022-05-13T13:55:37.157Z</time>
      </trkpt>
      <trkpt lat="45.68748" lon="4.53417">
        <ele>790.2</ele>
        <time>2022-05-13T13:55:38.157Z</time>
      </trkpt>
      <trkpt lat="45.68623" lon="4.53249">
        <ele>795.5</ele>
        <time>2022-05-13T13:55:39.157Z</time>
      </trkpt>
      <trkpt lat="45.6854" lon="4.53095">
        <ele>790.8</ele>
        <time>2022-05-13T13:55:40.157Z</time>
      </trkpt>
      <trkpt lat="45.68522" lon="4.53052">
        <ele>790.3</ele>
        <time>2022-05-13T13:55:41.157Z</time>
      </trkpt>
      <trkpt lat="45.68471" lon="4.5309">
        <ele>788.1</ele>
        <time>2022-05-13T13:55:42.157Z</time>
      </trkpt>
      <trkpt lat="45.68413" lon="4.53115">
        <ele>784.9</ele>
        <time>2022-05-13T13:55:43.157Z</time>
      </trkpt>
      <trkpt lat="45.68371" lon="4.53134">
        <ele>782.7</ele>
        <time>2022-05-13T13:55:44.157Z</time>
      </trkpt>
      <trkpt lat="45.68332" lon="4.53211">
        <ele>783</ele>
        <time>2022-05-13T13:55:45.157Z</time>
      </trkpt>
      <trkpt lat="45.68312" lon="4.5324">
        <ele>782.5</ele>
        <time>2022-05-13T13:55:46.157Z</time>
      </trkpt>
      <trkpt lat="45.68244" lon="4.53262">
        <ele>777</ele>
        <time>2022-05-13T13:55:47.157Z</time>
      </trkpt>
      <trkpt lat="45.68151" lon="4.53288">
        <ele>770.9</ele>
        <time>2022-05-13T13:55:48.157Z</time>
      </trkpt>
      <trkpt lat="45.681" lon="4.53299">
        <ele>769.8</ele>
        <time>2022-05-13T13:55:49.157Z</time>
      </trkpt>
      <trkpt lat="45.68054" lon="4.53315">
        <ele>769.9</ele>
        <time>2022-05-13T13:55:50.157Z</time>
      </trkpt>
      <trkpt lat="45.6803" lon="4.53368">
        <ele>768</ele>
        <time>2022-05-13T13:55:51.157Z</time>
      </trkpt>
      <trkpt lat="45.68036" lon="4.53417">
        <ele>765</ele>
        <time>2022-05-13T13:55:52.157Z</time>
      </trkpt>
      <trkpt lat="45.68062" lon="4.53476">
        <ele>762.9</ele>
        <time>2022-05-13T13:55:53.157Z</time>
      </trkpt>
      <trkpt lat="45.68068" lon="4.53527">
        <ele>763.8</ele>
        <time>2022-05-13T13:55:54.157Z</time>
      </trkpt>
      <trkpt lat="45.68035" lon="4.53606">
        <ele>760.3</ele>
        <time>2022-05-13T13:55:55.157Z</time>
      </trkpt>
      <trkpt lat="45.67994" lon="4.53702">
        <ele>753.2</ele>
        <time>2022-05-13T13:55:56.157Z</time>
      </trkpt>
      <trkpt lat="45.67968" lon="4.53837">
        <ele>754.7</ele>
        <time>2022-05-13T13:55:57.157Z</time>
      </trkpt>
      <trkpt lat="45.67824" lon="4.54112">
        <ele>729.2</ele>
        <time>2022-05-13T13:55:58.157Z</time>
      </trkpt>
      <trkpt lat="45.67814" lon="4.54154">
        <ele>727.7</ele>
        <time>2022-05-13T13:55:59.157Z</time>
      </trkpt>
      <trkpt lat="45.6782" lon="4.54195">
        <ele>726.5</ele>
        <time>2022-05-13T13:56:00.157Z</time>
      </trkpt>
      <trkpt lat="45.67862" lon="4.54247">
        <ele>729.3</ele>
        <time>2022-05-13T13:56:01.157Z</time>
      </trkpt>
      <trkpt lat="45.67893" lon="4.54335">
        <ele>719</ele>
        <time>2022-05-13T13:56:02.157Z</time>
      </trkpt>
      <trkpt lat="45.68024" lon="4.54448">
        <ele>717.3</ele>
        <time>2022-05-13T13:56:03.157Z</time>
      </trkpt>
      <trkpt lat="45.68029" lon="4.54475">
        <ele>717</ele>
        <time>2022-05-13T13:56:04.157Z</time>
      </trkpt>
      <trkpt lat="45.67999" lon="4.54514">
        <ele>713.5</ele>
        <time>2022-05-13T13:56:05.157Z</time>
      </trkpt>
      <trkpt lat="45.6797" lon="4.54522">
        <ele>710.5</ele>
        <time>2022-05-13T13:56:06.157Z</time>
      </trkpt>
      <trkpt lat="45.67814" lon="4.54572">
        <ele>697.5</ele>
        <time>2022-05-13T13:56:07.157Z</time>
      </trkpt>
      <trkpt lat="45.6767" lon="4.54596">
        <ele>686.7</ele>
        <time>2022-05-13T13:56:08.157Z</time>
      </trkpt>
      <trkpt lat="45.67538" lon="4.54662">
        <ele>681.5</ele>
        <time>2022-05-13T13:56:09.157Z</time>
      </trkpt>
      <trkpt lat="45.67456" lon="4.54727">
        <ele>675.6</ele>
        <time>2022-05-13T13:56:10.157Z</time>
      </trkpt>
      <trkpt lat="45.67365" lon="4.54803">
        <ele>666.9</ele>
        <time>2022-05-13T13:56:11.157Z</time>
      </trkpt>
      <trkpt lat="45.67353" lon="4.5483">
        <ele>665.8</ele>
        <time>2022-05-13T13:56:12.157Z</time>
      </trkpt>
      <trkpt lat="45.6735" lon="4.5486">
        <ele>663.9</ele>
        <time>2022-05-13T13:56:13.157Z</time>
      </trkpt>
      <trkpt lat="45.67366" lon="4.54886">
        <ele>664.5</ele>
        <time>2022-05-13T13:56:14.157Z</time>
      </trkpt>
      <trkpt lat="45.67409" lon="4.54941">
        <ele>665.1</ele>
        <time>2022-05-13T13:56:15.157Z</time>
      </trkpt>
      <trkpt lat="45.67446" lon="4.55032">
        <ele>659.7</ele>
        <time>2022-05-13T13:56:16.157Z</time>
      </trkpt>
      <trkpt lat="45.6744" lon="4.55122">
        <ele>655.1</ele>
        <time>2022-05-13T13:56:17.157Z</time>
      </trkpt>
      <trkpt lat="45.6743" lon="4.55183">
        <ele>654</ele>
        <time>2022-05-13T13:56:18.157Z</time>
      </trkpt>
      <trkpt lat="45.67395" lon="4.55202">
        <ele>656.6</ele>
        <time>2022-05-13T13:56:19.157Z</time>
      </trkpt>
      <trkpt lat="45.67344" lon="4.55124">
        <ele>657.2</ele>
        <time>2022-05-13T13:56:20.157Z</time>
      </trkpt>
      <trkpt lat="45.67295" lon="4.55091">
        <ele>654</ele>
        <time>2022-05-13T13:56:21.157Z</time>
      </trkpt>
      <trkpt lat="45.67203" lon="4.55133">
        <ele>659.9</ele>
        <time>2022-05-13T13:56:22.157Z</time>
      </trkpt>
      <trkpt lat="45.6707" lon="4.55206">
        <ele>664.8</ele>
        <time>2022-05-13T13:56:23.157Z</time>
      </trkpt>
      <trkpt lat="45.66985" lon="4.55255">
        <ele>668.3</ele>
        <time>2022-05-13T13:56:24.157Z</time>
      </trkpt>
      <trkpt lat="45.66949" lon="4.55318">
        <ele>670</ele>
        <time>2022-05-13T13:56:25.157Z</time>
      </trkpt>
      <trkpt lat="45.66886" lon="4.55497">
        <ele>673.7</ele>
        <time>2022-05-13T13:56:26.157Z</time>
      </trkpt>
      <trkpt lat="45.66808" lon="4.55711">
        <ele>670.7</ele>
        <time>2022-05-13T13:56:27.157Z</time>
      </trkpt>
      <trkpt lat="45.66732" lon="4.55835">
        <ele>672.3</ele>
        <time>2022-05-13T13:56:28.157Z</time>
      </trkpt>
      <trkpt lat="45.66606" lon="4.55996">
        <ele>683.5</ele>
        <time>2022-05-13T13:56:29.157Z</time>
      </trkpt>
      <trkpt lat="45.66573" lon="4.56039">
        <ele>688.2</ele>
        <time>2022-05-13T13:56:30.157Z</time>
      </trkpt>
      <trkpt lat="45.66559" lon="4.56038">
        <ele>690</ele>
        <time>2022-05-13T13:56:31.157Z</time>
      </trkpt>
      <trkpt lat="45.66539" lon="4.55991">
        <ele>690.2</ele>
        <time>2022-05-13T13:56:32.157Z</time>
      </trkpt>
      <trkpt lat="45.66539" lon="4.55956">
        <ele>689</ele>
        <time>2022-05-13T13:56:33.157Z</time>
      </trkpt>
      <trkpt lat="45.66513" lon="4.55887">
        <ele>695</ele>
        <time>2022-05-13T13:56:34.157Z</time>
      </trkpt>
      <trkpt lat="45.66515" lon="4.55844">
        <ele>696.3</ele>
        <time>2022-05-13T13:56:35.157Z</time>
      </trkpt>
      <trkpt lat="45.66538" lon="4.55793">
        <ele>691.4</ele>
        <time>2022-05-13T13:56:36.157Z</time>
      </trkpt>
      <trkpt lat="45.66525" lon="4.55731">
        <ele>692.9</ele>
        <time>2022-05-13T13:56:37.157Z</time>
      </trkpt>
      <trkpt lat="45.66431" lon="4.55631">
        <ele>701.2</ele>
        <time>2022-05-13T13:56:38.157Z</time>
      </trkpt>
      <trkpt lat="45.66414" lon="4.55632">
        <ele>703.6</ele>
        <time>2022-05-13T13:56:39.157Z</time>
      </trkpt>
      <trkpt lat="45.66398" lon="4.55641">
        <ele>703.8</ele>
        <time>2022-05-13T13:56:40.157Z</time>
      </trkpt>
      <trkpt lat="45.66377" lon="4.55705">
        <ele>706.7</ele>
        <time>2022-05-13T13:56:41.157Z</time>
      </trkpt>
      <trkpt lat="45.66369" lon="4.55731">
        <ele>707.4</ele>
        <time>2022-05-13T13:56:42.157Z</time>
      </trkpt>
      <trkpt lat="45.6638" lon="4.55751">
        <ele>708.8</ele>
        <time>2022-05-13T13:56:43.157Z</time>
      </trkpt>
      <trkpt lat="45.66383" lon="4.5579">
        <ele>710.2</ele>
        <time>2022-05-13T13:56:44.157Z</time>
      </trkpt>
      <trkpt lat="45.66379" lon="4.55848">
        <ele>712.2</ele>
        <time>2022-05-13T13:56:45.157Z</time>
      </trkpt>
      <trkpt lat="45.66373" lon="4.55939">
        <ele>716.4</ele>
        <time>2022-05-13T13:56:46.157Z</time>
      </trkpt>
      <trkpt lat="45.66367" lon="4.56016">
        <ele>721</ele>
        <time>2022-05-13T13:56:47.157Z</time>
      </trkpt>
      <trkpt lat="45.66339" lon="4.56134">
        <ele>728.7</ele>
        <time>2022-05-13T13:56:48.157Z</time>
      </trkpt>
      <trkpt lat="45.6633" lon="4.56164">
        <ele>730.8</ele>
        <time>2022-05-13T13:56:49.157Z</time>
      </trkpt>
      <trkpt lat="45.6636" lon="4.56212">
        <ele>731.1</ele>
        <time>2022-05-13T13:56:50.157Z</time>
      </trkpt>
      <trkpt lat="45.66384" lon="4.56232">
        <ele>730.9</ele>
        <time>2022-05-13T13:56:51.157Z</time>
      </trkpt>
      <trkpt lat="45.66372" lon="4.56251">
        <ele>733.7</ele>
        <time>2022-05-13T13:56:52.157Z</time>
      </trkpt>
      <trkpt lat="45.66359" lon="4.56288">
        <ele>735.8</ele>
        <time>2022-05-13T13:56:53.157Z</time>
      </trkpt>
      <trkpt lat="45.66347" lon="4.56328">
        <ele>737</ele>
        <time>2022-05-13T13:56:54.157Z</time>
      </trkpt>
      <trkpt lat="45.66316" lon="4.56291">
        <ele>736.3</ele>
        <time>2022-05-13T13:56:55.157Z</time>
      </trkpt>
      <trkpt lat="45.66286" lon="4.56291">
        <ele>735.9</ele>
        <time>2022-05-13T13:56:56.157Z</time>
      </trkpt>
      <trkpt lat="45.66231" lon="4.56306">
        <ele>734.9</ele>
        <time>2022-05-13T13:56:57.157Z</time>
      </trkpt>
      <trkpt lat="45.66186" lon="4.56308">
        <ele>733.7</ele>
        <time>2022-05-13T13:56:58.157Z</time>
      </trkpt>
      <trkpt lat="45.66088" lon="4.56343">
        <ele>734.4</ele>
        <time>2022-05-13T13:56:59.157Z</time>
      </trkpt>
      <trkpt lat="45.661" lon="4.56407">
        <ele>730.2</ele>
        <time>2022-05-13T13:57:00.157Z</time>
      </trkpt>
      <trkpt lat="45.66135" lon="4.56471">
        <ele>722.1</ele>
        <time>2022-05-13T13:57:01.157Z</time>
      </trkpt>
      <trkpt lat="45.66171" lon="4.5651">
        <ele>717.3</ele>
        <time>2022-05-13T13:57:02.157Z</time>
      </trkpt>
      <trkpt lat="45.66238" lon="4.56572">
        <ele>713.8</ele>
        <time>2022-05-13T13:57:03.157Z</time>
      </trkpt>
      <trkpt lat="45.66264" lon="4.56638">
        <ele>709.6</ele>
        <time>2022-05-13T13:57:04.157Z</time>
      </trkpt>
      <trkpt lat="45.66279" lon="4.5671">
        <ele>707.4</ele>
        <time>2022-05-13T13:57:05.157Z</time>
      </trkpt>
      <trkpt lat="45.66258" lon="4.56865">
        <ele>701.3</ele>
        <time>2022-05-13T13:57:06.157Z</time>
      </trkpt>
      <trkpt lat="45.662" lon="4.56988">
        <ele>689.6</ele>
        <time>2022-05-13T13:57:07.157Z</time>
      </trkpt>
      <trkpt lat="45.66176" lon="4.57025">
        <ele>683.6</ele>
        <time>2022-05-13T13:57:08.157Z</time>
      </trkpt>
      <trkpt lat="45.66176" lon="4.57084">
        <ele>685.5</ele>
        <time>2022-05-13T13:57:09.157Z</time>
      </trkpt>
      <trkpt lat="45.66196" lon="4.57139">
        <ele>686.5</ele>
        <time>2022-05-13T13:57:10.157Z</time>
      </trkpt>
      <trkpt lat="45.66248" lon="4.57203">
        <ele>692</ele>
        <time>2022-05-13T13:57:11.157Z</time>
      </trkpt>
      <trkpt lat="45.66327" lon="4.57456">
        <ele>675.1</ele>
        <time>2022-05-13T13:57:12.157Z</time>
      </trkpt>
      <trkpt lat="45.66332" lon="4.57498">
        <ele>670.1</ele>
        <time>2022-05-13T13:57:13.157Z</time>
      </trkpt>
      <trkpt lat="45.66332" lon="4.5756">
        <ele>667.6</ele>
        <time>2022-05-13T13:57:14.157Z</time>
      </trkpt>
      <trkpt lat="45.66307" lon="4.5773">
        <ele>658.7</ele>
        <time>2022-05-13T13:57:15.157Z</time>
      </trkpt>
      <trkpt lat="45.66308" lon="4.57795">
        <ele>655.5</ele>
        <time>2022-05-13T13:57:16.157Z</time>
      </trkpt>
      <trkpt lat="45.66322" lon="4.57862">
        <ele>654.6</ele>
        <time>2022-05-13T13:57:17.157Z</time>
      </trkpt>
      <trkpt lat="45.66335" lon="4.57901">
        <ele>655.2</ele>
        <time>2022-05-13T13:57:18.157Z</time>
      </trkpt>
      <trkpt lat="45.66354" lon="4.57956">
        <ele>650.2</ele>
        <time>2022-05-13T13:57:19.157Z</time>
      </trkpt>
      <trkpt lat="45.66377" lon="4.58002">
        <ele>644.9</ele>
        <time>2022-05-13T13:57:20.157Z</time>
      </trkpt>
      <trkpt lat="45.66411" lon="4.58022">
        <ele>647.7</ele>
        <time>2022-05-13T13:57:21.157Z</time>
      </trkpt>
      <trkpt lat="45.66451" lon="4.58032">
        <ele>641.8</ele>
        <time>2022-05-13T13:57:22.157Z</time>
      </trkpt>
      <trkpt lat="45.66491" lon="4.58027">
        <ele>636.9</ele>
        <time>2022-05-13T13:57:23.157Z</time>
      </trkpt>
      <trkpt lat="45.66553" lon="4.5798">
        <ele>632.5</ele>
        <time>2022-05-13T13:57:24.157Z</time>
      </trkpt>
      <trkpt lat="45.66594" lon="4.57926">
        <ele>633.4</ele>
        <time>2022-05-13T13:57:25.157Z</time>
      </trkpt>
      <trkpt lat="45.66615" lon="4.57899">
        <ele>632.3</ele>
        <time>2022-05-13T13:57:26.157Z</time>
      </trkpt>
      <trkpt lat="45.66652" lon="4.57773">
        <ele>626.3</ele>
        <time>2022-05-13T13:57:27.157Z</time>
      </trkpt>
      <trkpt lat="45.66666" lon="4.57741">
        <ele>623.6</ele>
        <time>2022-05-13T13:57:28.157Z</time>
      </trkpt>
      <trkpt lat="45.66694" lon="4.57704">
        <ele>625.8</ele>
        <time>2022-05-13T13:57:29.157Z</time>
      </trkpt>
      <trkpt lat="45.66748" lon="4.57686">
        <ele>622</ele>
        <time>2022-05-13T13:57:30.157Z</time>
      </trkpt>
      <trkpt lat="45.66784" lon="4.57686">
        <ele>621.6</ele>
        <time>2022-05-13T13:57:31.157Z</time>
      </trkpt>
      <trkpt lat="45.66824" lon="4.57718">
        <ele>615.3</ele>
        <time>2022-05-13T13:57:32.157Z</time>
      </trkpt>
      <trkpt lat="45.66856" lon="4.5777">
        <ele>609.6</ele>
        <time>2022-05-13T13:57:33.157Z</time>
      </trkpt>
      <trkpt lat="45.66865" lon="4.57836">
        <ele>607.3</ele>
        <time>2022-05-13T13:57:34.157Z</time>
      </trkpt>
      <trkpt lat="45.66853" lon="4.5792">
        <ele>605.1</ele>
        <time>2022-05-13T13:57:35.157Z</time>
      </trkpt>
      <trkpt lat="45.66781" lon="4.5824">
        <ele>589.6</ele>
        <time>2022-05-13T13:57:36.157Z</time>
      </trkpt>
      <trkpt lat="45.6671" lon="4.58439">
        <ele>582.7</ele>
        <time>2022-05-13T13:57:37.157Z</time>
      </trkpt>
      <trkpt lat="45.66682" lon="4.58479">
        <ele>581</ele>
        <time>2022-05-13T13:57:38.157Z</time>
      </trkpt>
      <trkpt lat="45.66636" lon="4.58513">
        <ele>574.9</ele>
        <time>2022-05-13T13:57:39.157Z</time>
      </trkpt>
      <trkpt lat="45.66584" lon="4.58543">
        <ele>566.8</ele>
        <time>2022-05-13T13:57:40.157Z</time>
      </trkpt>
      <trkpt lat="45.66553" lon="4.58585">
        <ele>562.1</ele>
        <time>2022-05-13T13:57:41.157Z</time>
      </trkpt>
      <trkpt lat="45.66527" lon="4.58656">
        <ele>560</ele>
        <time>2022-05-13T13:57:42.157Z</time>
      </trkpt>
      <trkpt lat="45.66533" lon="4.58723">
        <ele>559.6</ele>
        <time>2022-05-13T13:57:43.157Z</time>
      </trkpt>
      <trkpt lat="45.66544" lon="4.58769">
        <ele>558.1</ele>
        <time>2022-05-13T13:57:44.157Z</time>
      </trkpt>
      <trkpt lat="45.66578" lon="4.58828">
        <ele>555.1</ele>
        <time>2022-05-13T13:57:45.157Z</time>
      </trkpt>
      <trkpt lat="45.66646" lon="4.58867">
        <ele>547.9</ele>
        <time>2022-05-13T13:57:46.157Z</time>
      </trkpt>
      <trkpt lat="45.66739" lon="4.58917">
        <ele>543.5</ele>
        <time>2022-05-13T13:57:47.157Z</time>
      </trkpt>
      <trkpt lat="45.66778" lon="4.58919">
        <ele>544</ele>
        <time>2022-05-13T13:57:48.157Z</time>
      </trkpt>
      <trkpt lat="45.66838" lon="4.58904">
        <ele>547.1</ele>
        <time>2022-05-13T13:57:49.157Z</time>
      </trkpt>
      <trkpt lat="45.6689" lon="4.58936">
        <ele>535.3</ele>
        <time>2022-05-13T13:57:50.157Z</time>
      </trkpt>
      <trkpt lat="45.66921" lon="4.59003">
        <ele>527.5</ele>
        <time>2022-05-13T13:57:51.157Z</time>
      </trkpt>
      <trkpt lat="45.66918" lon="4.5907">
        <ele>528</ele>
        <time>2022-05-13T13:57:52.157Z</time>
      </trkpt>
      <trkpt lat="45.6688" lon="4.59166">
        <ele>521</ele>
        <time>2022-05-13T13:57:53.157Z</time>
      </trkpt>
      <trkpt lat="45.66866" lon="4.5923">
        <ele>515.5</ele>
        <time>2022-05-13T13:57:54.157Z</time>
      </trkpt>
      <trkpt lat="45.66873" lon="4.59296">
        <ele>511.1</ele>
        <time>2022-05-13T13:57:55.157Z</time>
      </trkpt>
      <trkpt lat="45.66899" lon="4.59358">
        <ele>507.5</ele>
        <time>2022-05-13T13:57:56.157Z</time>
      </trkpt>
      <trkpt lat="45.66945" lon="4.5941">
        <ele>503.3</ele>
        <time>2022-05-13T13:57:57.157Z</time>
      </trkpt>
      <trkpt lat="45.66978" lon="4.59447">
        <ele>500.2</ele>
        <time>2022-05-13T13:57:58.157Z</time>
      </trkpt>
      <trkpt lat="45.66997" lon="4.59496">
        <ele>496.9</ele>
        <time>2022-05-13T13:57:59.157Z</time>
      </trkpt>
      <trkpt lat="45.67014" lon="4.59562">
        <ele>492</ele>
        <time>2022-05-13T13:58:00.157Z</time>
      </trkpt>
      <trkpt lat="45.67061" lon="4.59631">
        <ele>492.5</ele>
        <time>2022-05-13T13:58:01.157Z</time>
      </trkpt>
      <trkpt lat="45.67121" lon="4.5971">
        <ele>484.5</ele>
        <time>2022-05-13T13:58:02.157Z</time>
      </trkpt>
      <trkpt lat="45.67149" lon="4.59782">
        <ele>478.2</ele>
        <time>2022-05-13T13:58:03.157Z</time>
      </trkpt>
      <trkpt lat="45.67157" lon="4.59857">
        <ele>475.6</ele>
        <time>2022-05-13T13:58:04.157Z</time>
      </trkpt>
      <trkpt lat="45.67149" lon="4.59929">
        <ele>473.6</ele>
        <time>2022-05-13T13:58:05.157Z</time>
      </trkpt>
      <trkpt lat="45.67147" lon="4.60007">
        <ele>471.1</ele>
        <time>2022-05-13T13:58:06.157Z</time>
      </trkpt>
      <trkpt lat="45.67171" lon="4.60099">
        <ele>471.1</ele>
        <time>2022-05-13T13:58:07.157Z</time>
      </trkpt>
      <trkpt lat="45.67181" lon="4.6016">
        <ele>469.4</ele>
        <time>2022-05-13T13:58:08.157Z</time>
      </trkpt>
      <trkpt lat="45.67176" lon="4.60269">
        <ele>461</ele>
        <time>2022-05-13T13:58:09.157Z</time>
      </trkpt>
      <trkpt lat="45.67155" lon="4.60385">
        <ele>457.8</ele>
        <time>2022-05-13T13:58:10.157Z</time>
      </trkpt>
      <trkpt lat="45.67136" lon="4.6049">
        <ele>452.9</ele>
        <time>2022-05-13T13:58:11.157Z</time>
      </trkpt>
      <trkpt lat="45.67131" lon="4.60557">
        <ele>449.8</ele>
        <time>2022-05-13T13:58:12.157Z</time>
      </trkpt>
      <trkpt lat="45.67149" lon="4.60633">
        <ele>447.7</ele>
        <time>2022-05-13T13:58:13.157Z</time>
      </trkpt>
      <trkpt lat="45.67178" lon="4.6072">
        <ele>444.9</ele>
        <time>2022-05-13T13:58:14.157Z</time>
      </trkpt>
      <trkpt lat="45.67205" lon="4.60771">
        <ele>444.7</ele>
        <time>2022-05-13T13:58:15.157Z</time>
      </trkpt>
      <trkpt lat="45.67306" lon="4.60837">
        <ele>440.2</ele>
        <time>2022-05-13T13:58:16.157Z</time>
      </trkpt>
      <trkpt lat="45.67337" lon="4.60876">
        <ele>437.2</ele>
        <time>2022-05-13T13:58:17.157Z</time>
      </trkpt>
      <trkpt lat="45.67359" lon="4.60972">
        <ele>433.5</ele>
        <time>2022-05-13T13:58:18.157Z</time>
      </trkpt>
      <trkpt lat="45.67383" lon="4.61029">
        <ele>430.2</ele>
        <time>2022-05-13T13:58:19.157Z</time>
      </trkpt>
      <trkpt lat="45.67433" lon="4.61088">
        <ele>421.8</ele>
        <time>2022-05-13T13:58:20.157Z</time>
      </trkpt>
      <trkpt lat="45.675" lon="4.6116">
        <ele>416.8</ele>
        <time>2022-05-13T13:58:21.157Z</time>
      </trkpt>
      <trkpt lat="45.67523" lon="4.61216">
        <ele>417</ele>
        <time>2022-05-13T13:58:22.157Z</time>
      </trkpt>
      <trkpt lat="45.67529" lon="4.613">
        <ele>419.2</ele>
        <time>2022-05-13T13:58:23.157Z</time>
      </trkpt>
      <trkpt lat="45.67512" lon="4.61382">
        <ele>418.5</ele>
        <time>2022-05-13T13:58:24.157Z</time>
      </trkpt>
      <trkpt lat="45.67497" lon="4.61445">
        <ele>415.5</ele>
        <time>2022-05-13T13:58:25.157Z</time>
      </trkpt>
      <trkpt lat="45.67514" lon="4.61506">
        <ele>413.3</ele>
        <time>2022-05-13T13:58:26.157Z</time>
      </trkpt>
      <trkpt lat="45.67557" lon="4.61627">
        <ele>407.4</ele>
        <time>2022-05-13T13:58:27.157Z</time>
      </trkpt>
      <trkpt lat="45.67573" lon="4.61819">
        <ele>408.5</ele>
        <time>2022-05-13T13:58:28.157Z</time>
      </trkpt>
      <trkpt lat="45.67563" lon="4.61878">
        <ele>408.5</ele>
        <time>2022-05-13T13:58:29.157Z</time>
      </trkpt>
      <trkpt lat="45.67471" lon="4.62154">
        <ele>406.6</ele>
        <time>2022-05-13T13:58:30.157Z</time>
      </trkpt>
      <trkpt lat="45.67428" lon="4.62213">
        <ele>400.1</ele>
        <time>2022-05-13T13:58:31.157Z</time>
      </trkpt>
      <trkpt lat="45.67402" lon="4.6226">
        <ele>397.2</ele>
        <time>2022-05-13T13:58:32.157Z</time>
      </trkpt>
      <trkpt lat="45.6739" lon="4.62336">
        <ele>396.2</ele>
        <time>2022-05-13T13:58:33.157Z</time>
      </trkpt>
      <trkpt lat="45.67387" lon="4.62479">
        <ele>392.2</ele>
        <time>2022-05-13T13:58:34.157Z</time>
      </trkpt>
      <trkpt lat="45.67399" lon="4.62538">
        <ele>392</ele>
        <time>2022-05-13T13:58:35.157Z</time>
      </trkpt>
      <trkpt lat="45.67436" lon="4.62637">
        <ele>388.9</ele>
        <time>2022-05-13T13:58:36.157Z</time>
      </trkpt>
      <trkpt lat="45.67507" lon="4.62772">
        <ele>384</ele>
        <time>2022-05-13T13:58:37.157Z</time>
      </trkpt>
      <trkpt lat="45.67547" lon="4.62863">
        <ele>379</ele>
        <time>2022-05-13T13:58:38.157Z</time>
      </trkpt>
      <trkpt lat="45.67552" lon="4.6292">
        <ele>374.7</ele>
        <time>2022-05-13T13:58:39.157Z</time>
      </trkpt>
      <trkpt lat="45.67526" lon="4.63013">
        <ele>370.5</ele>
        <time>2022-05-13T13:58:40.157Z</time>
      </trkpt>
      <trkpt lat="45.67502" lon="4.63079">
        <ele>369.2</ele>
        <time>2022-05-13T13:58:41.157Z</time>
      </trkpt>
      <trkpt lat="45.67509" lon="4.63148">
        <ele>369</ele>
        <time>2022-05-13T13:58:42.157Z</time>
      </trkpt>
      <trkpt lat="45.67523" lon="4.63197">
        <ele>368.2</ele>
        <time>2022-05-13T13:58:43.157Z</time>
      </trkpt>
      <trkpt lat="45.67557" lon="4.63234">
        <ele>368.1</ele>
        <time>2022-05-13T13:58:44.157Z</time>
      </trkpt>
      <trkpt lat="45.67611" lon="4.63264">
        <ele>368.6</ele>
        <time>2022-05-13T13:58:45.157Z</time>
      </trkpt>
      <trkpt lat="45.67639" lon="4.63292">
        <ele>367.1</ele>
        <time>2022-05-13T13:58:46.157Z</time>
      </trkpt>
      <trkpt lat="45.67701" lon="4.634">
        <ele>359.6</ele>
        <time>2022-05-13T13:58:47.157Z</time>
      </trkpt>
      <trkpt lat="45.67734" lon="4.6356">
        <ele>353.1</ele>
        <time>2022-05-13T13:58:48.157Z</time>
      </trkpt>
      <trkpt lat="45.67756" lon="4.63644">
        <ele>347.3</ele>
        <time>2022-05-13T13:58:49.157Z</time>
      </trkpt>
      <trkpt lat="45.67805" lon="4.63708">
        <ele>343.2</ele>
        <time>2022-05-13T13:58:50.157Z</time>
      </trkpt>
      <trkpt lat="45.67863" lon="4.6377">
        <ele>345.4</ele>
        <time>2022-05-13T13:58:51.157Z</time>
      </trkpt>
      <trkpt lat="45.67888" lon="4.63852">
        <ele>349.7</ele>
        <time>2022-05-13T13:58:52.157Z</time>
      </trkpt>
      <trkpt lat="45.67902" lon="4.63946">
        <ele>349</ele>
        <time>2022-05-13T13:58:53.157Z</time>
      </trkpt>
      <trkpt lat="45.6789" lon="4.64089">
        <ele>345.7</ele>
        <time>2022-05-13T13:58:54.157Z</time>
      </trkpt>
      <trkpt lat="45.67883" lon="4.64185">
        <ele>343.1</ele>
        <time>2022-05-13T13:58:55.157Z</time>
      </trkpt>
      <trkpt lat="45.67886" lon="4.64236">
        <ele>342.1</ele>
        <time>2022-05-13T13:58:56.157Z</time>
      </trkpt>
      <trkpt lat="45.67909" lon="4.64296">
        <ele>341.3</ele>
        <time>2022-05-13T13:58:57.157Z</time>
      </trkpt>
      <trkpt lat="45.67938" lon="4.64357">
        <ele>341.4</ele>
        <time>2022-05-13T13:58:58.157Z</time>
      </trkpt>
      <trkpt lat="45.67966" lon="4.64399">
        <ele>342.6</ele>
        <time>2022-05-13T13:58:59.157Z</time>
      </trkpt>
      <trkpt lat="45.6799" lon="4.64508">
        <ele>338.6</ele>
        <time>2022-05-13T13:59:00.157Z</time>
      </trkpt>
      <trkpt lat="45.68006" lon="4.64602">
        <ele>335.7</ele>
        <time>2022-05-13T13:59:01.157Z</time>
      </trkpt>
      <trkpt lat="45.6799" lon="4.64661">
        <ele>334</ele>
        <time>2022-05-13T13:59:02.157Z</time>
      </trkpt>
      <trkpt lat="45.67954" lon="4.64804">
        <ele>334.1</ele>
        <time>2022-05-13T13:59:03.157Z</time>
      </trkpt>
      <trkpt lat="45.67947" lon="4.64886">
        <ele>332.4</ele>
        <time>2022-05-13T13:59:04.157Z</time>
      </trkpt>
      <trkpt lat="45.67944" lon="4.64996">
        <ele>329.6</ele>
        <time>2022-05-13T13:59:05.157Z</time>
      </trkpt>
      <trkpt lat="45.67949" lon="4.65053">
        <ele>328.1</ele>
        <time>2022-05-13T13:59:06.157Z</time>
      </trkpt>
      <trkpt lat="45.67977" lon="4.65125">
        <ele>328.5</ele>
        <time>2022-05-13T13:59:07.157Z</time>
      </trkpt>
      <trkpt lat="45.67953" lon="4.65286">
        <ele>329.9</ele>
        <time>2022-05-13T13:59:08.157Z</time>
      </trkpt>
      <trkpt lat="45.67957" lon="4.65521">
        <ele>327.1</ele>
        <time>2022-05-13T13:59:09.157Z</time>
      </trkpt>
      <trkpt lat="45.67905" lon="4.65728">
        <ele>321.2</ele>
        <time>2022-05-13T13:59:10.157Z</time>
      </trkpt>
      <trkpt lat="45.67912" lon="4.6587">
        <ele>317.9</ele>
        <time>2022-05-13T13:59:11.157Z</time>
      </trkpt>
      <trkpt lat="45.67929" lon="4.65974">
        <ele>321.1</ele>
        <time>2022-05-13T13:59:12.157Z</time>
      </trkpt>
      <trkpt lat="45.67949" lon="4.66034">
        <ele>323.8</ele>
        <time>2022-05-13T13:59:13.157Z</time>
      </trkpt>
      <trkpt lat="45.68014" lon="4.66145">
        <ele>326.3</ele>
        <time>2022-05-13T13:59:14.157Z</time>
      </trkpt>
      <trkpt lat="45.68083" lon="4.66244">
        <ele>325.7</ele>
        <time>2022-05-13T13:59:15.157Z</time>
      </trkpt>
      <trkpt lat="45.68171" lon="4.66342">
        <ele>325</ele>
        <time>2022-05-13T13:59:16.157Z</time>
      </trkpt>
      <trkpt lat="45.68281" lon="4.66564">
        <ele>324.7</ele>
        <time>2022-05-13T13:59:17.157Z</time>
      </trkpt>
      <trkpt lat="45.68381" lon="4.66736">
        <ele>325.3</ele>
        <time>2022-05-13T13:59:18.157Z</time>
      </trkpt>
      <trkpt lat="45.6851" lon="4.66899">
        <ele>326.3</ele>
        <time>2022-05-13T13:59:19.157Z</time>
      </trkpt>
      <trkpt lat="45.68605" lon="4.67083">
        <ele>326.8</ele>
        <time>2022-05-13T13:59:20.157Z</time>
      </trkpt>
      <trkpt lat="45.68816" lon="4.67381">
        <ele>323.7</ele>
        <time>2022-05-13T13:59:21.157Z</time>
      </trkpt>
      <trkpt lat="45.68888" lon="4.67519">
        <ele>321</ele>
        <time>2022-05-13T13:59:22.157Z</time>
      </trkpt>
      <trkpt lat="45.69046" lon="4.67792">
        <ele>322.9</ele>
        <time>2022-05-13T13:59:23.157Z</time>
      </trkpt>
      <trkpt lat="45.69103" lon="4.67945">
        <ele>319.4</ele>
        <time>2022-05-13T13:59:24.157Z</time>
      </trkpt>
      <trkpt lat="45.6918" lon="4.6808">
        <ele>316.3</ele>
        <time>2022-05-13T13:59:25.157Z</time>
      </trkpt>
      <trkpt lat="45.6928" lon="4.68204">
        <ele>315.3</ele>
        <time>2022-05-13T13:59:26.157Z</time>
      </trkpt>
      <trkpt lat="45.69361" lon="4.68273">
        <ele>316.6</ele>
        <time>2022-05-13T13:59:27.157Z</time>
      </trkpt>
      <trkpt lat="45.69438" lon="4.68327">
        <ele>317.8</ele>
        <time>2022-05-13T13:59:28.157Z</time>
      </trkpt>
      <trkpt lat="45.69502" lon="4.68419">
        <ele>317.1</ele>
        <time>2022-05-13T13:59:29.157Z</time>
      </trkpt>
      <trkpt lat="45.69579" lon="4.6849">
        <ele>318.3</ele>
        <time>2022-05-13T13:59:30.157Z</time>
      </trkpt>
      <trkpt lat="45.69695" lon="4.68571">
        <ele>319.3</ele>
        <time>2022-05-13T13:59:31.157Z</time>
      </trkpt>
      <trkpt lat="45.69805" lon="4.68626">
        <ele>318.8</ele>
        <time>2022-05-13T13:59:32.157Z</time>
      </trkpt>
      <trkpt lat="45.69823" lon="4.68639">
        <ele>318.6</ele>
        <time>2022-05-13T13:59:33.157Z</time>
      </trkpt>
      <trkpt lat="45.69913" lon="4.68743">
        <ele>317.2</ele>
        <time>2022-05-13T13:59:34.157Z</time>
      </trkpt>
      <trkpt lat="45.70037" lon="4.68699">
        <ele>316.5</ele>
        <time>2022-05-13T13:59:35.157Z</time>
      </trkpt>
      <trkpt lat="45.7018" lon="4.68743">
        <ele>311.7</ele>
        <time>2022-05-13T13:59:36.157Z</time>
      </trkpt>
      <trkpt lat="45.70294" lon="4.68759">
        <ele>307.4</ele>
        <time>2022-05-13T13:59:37.157Z</time>
      </trkpt>
      <trkpt lat="45.70437" lon="4.68811">
        <ele>304</ele>
        <time>2022-05-13T13:59:38.157Z</time>
      </trkpt>
      <trkpt lat="45.7058" lon="4.6887">
        <ele>304.1</ele>
        <time>2022-05-13T13:59:39.157Z</time>
      </trkpt>
      <trkpt lat="45.70613" lon="4.68889">
        <ele>303.1</ele>
        <time>2022-05-13T13:59:40.157Z</time>
      </trkpt>
      <trkpt lat="45.70749" lon="4.69034">
        <ele>298</ele>
        <time>2022-05-13T13:59:41.157Z</time>
      </trkpt>
      <trkpt lat="45.70783" lon="4.69062">
        <ele>298.9</ele>
        <time>2022-05-13T13:59:42.157Z</time>
      </trkpt>
      <trkpt lat="45.71073" lon="4.69066">
        <ele>306.5</ele>
        <time>2022-05-13T13:59:43.157Z</time>
      </trkpt>
      <trkpt lat="45.71265" lon="4.69042">
        <ele>313.4</ele>
        <time>2022-05-13T13:59:44.157Z</time>
      </trkpt>
      <trkpt lat="45.71371" lon="4.69093">
        <ele>318.1</ele>
        <time>2022-05-13T13:59:45.157Z</time>
      </trkpt>
      <trkpt lat="45.71451" lon="4.69253">
        <ele>318.9</ele>
        <time>2022-05-13T13:59:46.157Z</time>
      </trkpt>
      <trkpt lat="45.71539" lon="4.69421">
        <ele>314.8</ele>
        <time>2022-05-13T13:59:47.157Z</time>
      </trkpt>
      <trkpt lat="45.71668" lon="4.6956">
        <ele>312.3</ele>
        <time>2022-05-13T13:59:48.157Z</time>
      </trkpt>
      <trkpt lat="45.71792" lon="4.69656">
        <ele>308.1</ele>
        <time>2022-05-13T13:59:49.157Z</time>
      </trkpt>
      <trkpt lat="45.71991" lon="4.6975">
        <ele>305</ele>
        <time>2022-05-13T13:59:50.157Z</time>
      </trkpt>
      <trkpt lat="45.72158" lon="4.69807">
        <ele>302.8</ele>
        <time>2022-05-13T13:59:51.157Z</time>
      </trkpt>
      <trkpt lat="45.72256" lon="4.69856">
        <ele>301.4</ele>
        <time>2022-05-13T13:59:52.157Z</time>
      </trkpt>
      <trkpt lat="45.72445" lon="4.70044">
        <ele>298.1</ele>
        <time>2022-05-13T13:59:53.157Z</time>
      </trkpt>
      <trkpt lat="45.72557" lon="4.70122">
        <ele>296.1</ele>
        <time>2022-05-13T13:59:54.157Z</time>
      </trkpt>
      <trkpt lat="45.7272" lon="4.70146">
        <ele>296.3</ele>
        <time>2022-05-13T13:59:55.157Z</time>
      </trkpt>
      <trkpt lat="45.72944" lon="4.7031">
        <ele>289.5</ele>
        <time>2022-05-13T13:59:56.157Z</time>
      </trkpt>
      <trkpt lat="45.73073" lon="4.70415">
        <ele>287</ele>
        <time>2022-05-13T13:59:57.157Z</time>
      </trkpt>
      <trkpt lat="45.73204" lon="4.70624">
        <ele>276.1</ele>
        <time>2022-05-13T13:59:58.157Z</time>
      </trkpt>
      <trkpt lat="45.73274" lon="4.70893">
        <ele>273.2</ele>
        <time>2022-05-13T13:59:59.157Z</time>
      </trkpt>
      <trkpt lat="45.7344" lon="4.71199">
        <ele>259.7</ele>
        <time>2022-05-13T14:00:00.157Z</time>
      </trkpt>
      <trkpt lat="45.73513" lon="4.71346">
        <ele>253.2</ele>
        <time>2022-05-13T14:00:01.157Z</time>
      </trkpt>
      <trkpt lat="45.73629" lon="4.71402">
        <ele>250.8</ele>
        <time>2022-05-13T14:00:02.157Z</time>
      </trkpt>
      <trkpt lat="45.73698" lon="4.71421">
        <ele>253.1</ele>
        <time>2022-05-13T14:00:03.157Z</time>
      </trkpt>
      <trkpt lat="45.73771" lon="4.71564">
        <ele>253.1</ele>
        <time>2022-05-13T14:00:04.157Z</time>
      </trkpt>
      <trkpt lat="45.73836" lon="4.7177">
        <ele>258.2</ele>
        <time>2022-05-13T14:00:05.157Z</time>
      </trkpt>
      <trkpt lat="45.73853" lon="4.71902">
        <ele>263.4</ele>
        <time>2022-05-13T14:00:06.157Z</time>
      </trkpt>
      <trkpt lat="45.73885" lon="4.72073">
        <ele>264.5</ele>
        <time>2022-05-13T14:00:07.157Z</time>
      </trkpt>
      <trkpt lat="45.73955" lon="4.72209">
        <ele>265.3</ele>
        <time>2022-05-13T14:00:08.157Z</time>
      </trkpt>
      <trkpt lat="45.74058" lon="4.72258">
        <ele>271.6</ele>
        <time>2022-05-13T14:00:09.157Z</time>
      </trkpt>
      <trkpt lat="45.74093" lon="4.72296">
        <ele>275</ele>
        <time>2022-05-13T14:00:10.157Z</time>
      </trkpt>
      <trkpt lat="45.74161" lon="4.72425">
        <ele>275.9</ele>
        <time>2022-05-13T14:00:11.157Z</time>
      </trkpt>
      <trkpt lat="45.74229" lon="4.72474">
        <ele>279.2</ele>
        <time>2022-05-13T14:00:12.157Z</time>
      </trkpt>
      <trkpt lat="45.74351" lon="4.72714">
        <ele>276.7</ele>
        <time>2022-05-13T14:00:13.157Z</time>
      </trkpt>
      <trkpt lat="45.74482" lon="4.7293">
        <ele>275.2</ele>
        <time>2022-05-13T14:00:14.157Z</time>
      </trkpt>
      <trkpt lat="45.74597" lon="4.73087">
        <ele>270.1</ele>
        <time>2022-05-13T14:00:15.157Z</time>
      </trkpt>
      <trkpt lat="45.74598" lon="4.73141">
        <ele>267</ele>
        <time>2022-05-13T14:00:16.157Z</time>
      </trkpt>
      <trkpt lat="45.74598" lon="4.73207">
        <ele>265.4</ele>
        <time>2022-05-13T14:00:17.157Z</time>
      </trkpt>
      <trkpt lat="45.74588" lon="4.7327">
        <ele>265.3</ele>
        <time>2022-05-13T14:00:18.157Z</time>
      </trkpt>
      <trkpt lat="45.74569" lon="4.73353">
        <ele>266.1</ele>
        <time>2022-05-13T14:00:19.157Z</time>
      </trkpt>
      <trkpt lat="45.74535" lon="4.73409">
        <ele>266.9</ele>
        <time>2022-05-13T14:00:20.157Z</time>
      </trkpt>
      <trkpt lat="45.74494" lon="4.73486">
        <ele>270.2</ele>
        <time>2022-05-13T14:00:21.157Z</time>
      </trkpt>
      <trkpt lat="45.74469" lon="4.73528">
        <ele>271.1</ele>
        <time>2022-05-13T14:00:22.157Z</time>
      </trkpt>
      <trkpt lat="45.74445" lon="4.73583">
        <ele>272</ele>
        <time>2022-05-13T14:00:23.157Z</time>
      </trkpt>
      <trkpt lat="45.74425" lon="4.73653">
        <ele>269.7</ele>
        <time>2022-05-13T14:00:24.157Z</time>
      </trkpt>
      <trkpt lat="45.74425" lon="4.73764">
        <ele>269.5</ele>
        <time>2022-05-13T14:00:25.157Z</time>
      </trkpt>
      <trkpt lat="45.74425" lon="4.73855">
        <ele>266</ele>
        <time>2022-05-13T14:00:26.157Z</time>
      </trkpt>
      <trkpt lat="45.74421" lon="4.73935">
        <ele>263.4</ele>
        <time>2022-05-13T14:00:27.157Z</time>
      </trkpt>
      <trkpt lat="45.74423" lon="4.73998">
        <ele>260.9</ele>
        <time>2022-05-13T14:00:28.157Z</time>
      </trkpt>
      <trkpt lat="45.74433" lon="4.74096">
        <ele>260</ele>
        <time>2022-05-13T14:00:29.157Z</time>
      </trkpt>
      <trkpt lat="45.74452" lon="4.74186">
        <ele>259.5</ele>
        <time>2022-05-13T14:00:30.157Z</time>
      </trkpt>
      <trkpt lat="45.74498" lon="4.74277">
        <ele>261.2</ele>
        <time>2022-05-13T14:00:31.157Z</time>
      </trkpt>
      <trkpt lat="45.74552" lon="4.74357">
        <ele>257.3</ele>
        <time>2022-05-13T14:00:32.157Z</time>
      </trkpt>
      <trkpt lat="45.74586" lon="4.74462">
        <ele>260.2</ele>
        <time>2022-05-13T14:00:33.157Z</time>
      </trkpt>
      <trkpt lat="45.74586" lon="4.7458">
        <ele>259.2</ele>
        <time>2022-05-13T14:00:34.157Z</time>
      </trkpt>
      <trkpt lat="45.74586" lon="4.74671">
        <ele>253.2</ele>
        <time>2022-05-13T14:00:35.157Z</time>
      </trkpt>
      <trkpt lat="45.74586" lon="4.74803">
        <ele>251.9</ele>
        <time>2022-05-13T14:00:36.157Z</time>
      </trkpt>
      <trkpt lat="45.74567" lon="4.74885">
        <ele>248</ele>
        <time>2022-05-13T14:00:37.157Z</time>
      </trkpt>
      <trkpt lat="45.74533" lon="4.75004">
        <ele>249.9</ele>
        <time>2022-05-13T14:00:38.157Z</time>
      </trkpt>
      <trkpt lat="45.74526" lon="4.7507">
        <ele>252.4</ele>
        <time>2022-05-13T14:00:39.157Z</time>
      </trkpt>
      <trkpt lat="45.74533" lon="4.75185">
        <ele>250</ele>
        <time>2022-05-13T14:00:40.157Z</time>
      </trkpt>
      <trkpt lat="45.7454" lon="4.75293">
        <ele>247.4</ele>
        <time>2022-05-13T14:00:41.157Z</time>
      </trkpt>
      <trkpt lat="45.74545" lon="4.75366">
        <ele>245.6</ele>
        <time>2022-05-13T14:00:42.157Z</time>
      </trkpt>
      <trkpt lat="45.74526" lon="4.75422">
        <ele>244.9</ele>
        <time>2022-05-13T14:00:43.157Z</time>
      </trkpt>
      <trkpt lat="45.74525" lon="4.75524">
        <ele>243.9</ele>
        <time>2022-05-13T14:00:44.157Z</time>
      </trkpt>
      <trkpt lat="45.74554" lon="4.75635">
        <ele>245.5</ele>
        <time>2022-05-13T14:00:45.157Z</time>
      </trkpt>
      <trkpt lat="45.74588" lon="4.7574">
        <ele>244.2</ele>
        <time>2022-05-13T14:00:46.157Z</time>
      </trkpt>
      <trkpt lat="45.74627" lon="4.75858">
        <ele>239</ele>
        <time>2022-05-13T14:00:47.157Z</time>
      </trkpt>
      <trkpt lat="45.74656" lon="4.7597">
        <ele>236.5</ele>
        <time>2022-05-13T14:00:48.157Z</time>
      </trkpt>
      <trkpt lat="45.74676" lon="4.76071">
        <ele>229.6</ele>
        <time>2022-05-13T14:00:49.157Z</time>
      </trkpt>
      <trkpt lat="45.747" lon="4.76203">
        <ele>217.7</ele>
        <time>2022-05-13T14:00:50.157Z</time>
      </trkpt>
      <trkpt lat="45.74763" lon="4.76175">
        <ele>218.3</ele>
        <time>2022-05-13T14:00:51.157Z</time>
      </trkpt>
      <trkpt lat="45.74851" lon="4.76078">
        <ele>222.1</ele>
        <time>2022-05-13T14:00:52.157Z</time>
      </trkpt>
      <trkpt lat="45.74919" lon="4.76104">
        <ele>213.9</ele>
        <time>2022-05-13T14:00:53.157Z</time>
      </trkpt>
      <trkpt lat="45.75036" lon="4.76136">
        <ele>208.8</ele>
        <time>2022-05-13T14:00:54.157Z</time>
      </trkpt>
      <trkpt lat="45.75138" lon="4.7615">
        <ele>209</ele>
        <time>2022-05-13T14:00:55.157Z</time>
      </trkpt>
      <trkpt lat="45.7518" lon="4.76192">
        <ele>207.6</ele>
        <time>2022-05-13T14:00:56.157Z</time>
      </trkpt>
      <trkpt lat="45.7518" lon="4.76261">
        <ele>208.9</ele>
        <time>2022-05-13T14:00:57.157Z</time>
      </trkpt>
      <trkpt lat="45.75158" lon="4.76345">
        <ele>213.4</ele>
        <time>2022-05-13T14:00:58.157Z</time>
      </trkpt>
      <trkpt lat="45.75092" lon="4.76397">
        <ele>213.7</ele>
        <time>2022-05-13T14:00:59.157Z</time>
      </trkpt>
      <trkpt lat="45.75043" lon="4.7646">
        <ele>215.1</ele>
        <time>2022-05-13T14:01:00.157Z</time>
      </trkpt>
      <trkpt lat="45.75043" lon="4.76526">
        <ele>217.5</ele>
        <time>2022-05-13T14:01:01.157Z</time>
      </trkpt>
      <trkpt lat="45.75053" lon="4.76596">
        <ele>218.4</ele>
        <time>2022-05-13T14:01:02.157Z</time>
      </trkpt>
      <trkpt lat="45.75091" lon="4.7665">
        <ele>218.4</ele>
        <time>2022-05-13T14:01:03.157Z</time>
      </trkpt>
      <trkpt lat="45.75349" lon="4.76932">
        <ele>215.1</ele>
        <time>2022-05-13T14:01:04.157Z</time>
      </trkpt>
      <trkpt lat="45.7581" lon="4.77482">
        <ele>216.9</ele>
        <time>2022-05-13T14:01:05.157Z</time>
      </trkpt>
      <trkpt lat="45.761" lon="4.77813">
        <ele>221.8</ele>
        <time>2022-05-13T14:01:06.157Z</time>
      </trkpt>
      <trkpt lat="45.76885" lon="4.78723">
        <ele>203.4</ele>
        <time>2022-05-13T14:01:07.157Z</time>
      </trkpt>
      <trkpt lat="45.77652" lon="4.7961">
        <ele>175.6</ele>
        <time>2022-05-13T14:01:08.157Z</time>
      </trkpt>
      <trkpt lat="45.77564" lon="4.80185">
        <ele>173.1</ele>
        <time>2022-05-13T14:01:09.157Z</time>
      </trkpt>
      <trkpt lat="45.77619" lon="4.80226">
        <ele>172.6</ele>
        <time>2022-05-13T14:01:10.157Z</time>
      </trkpt>
      <trkpt lat="45.77751" lon="4.8035">
        <ele>172</ele>
        <time>2022-05-13T14:01:11.157Z</time>
      </trkpt>
      <trkpt lat="45.77719" lon="4.80366">
        <ele>172</ele>
        <time>2022-05-13T14:01:12.157Z</time>
      </trkpt>
      <trkpt lat="45.77789" lon="4.80536">
        <ele>171.8</ele>
        <time>2022-05-13T14:01:13.157Z</time>
      </trkpt>
    </trkseg>
  </trk>
</gpx>